APDL
Data 01-03-2021

Previsão de Chegada de Navios

Fonte de dados: JUPII - Janela Única Portuária
* Informação em Tempo Real
Data Prevista Chegada Pasta Contramarca Nº Imo Navio Indicativo Chamada Bandeira Comp. GT Local de Atracação Calado Porto Agente Navegação Tipo de Navio
Entrada Saida Origem Destino
2021/03/01 08:00 ESC202100410 000409 9141613 PONTA DO SOL CSCR PORTUGAL 100.62 4115.0 TERMINAL DE CONTENTORES NORTE 5.5 6.3 PONTA DELGADA PRAIA DA VITÓRIA SOFRENA - SOC. AFRET. NAVEGACAO MISTO C.GERAL/CONTEN.
2021/03/01 12:00 ESC202002764 002774 P245AL VIKING TORGIL CSYT7 PORTUGAL 79.02 1615.0 DOCA 1 NORTE - PASSAGEIROS 1.75 1.75 VIANA DO CASTELO PORTO PINTO BASTO IV-SERVICOS MARITIMOS, LDA. PASSAGEIROS
2021/03/01 16:30 ESC202002788 002799 9904900 VIKING HELGRIM CSZJ6 PORTUGAL 79.02 1650.0 DOCA 1 NORTE - PASSAGEIROS 1.75 1.75 VIANA DO CASTELO PORTO PINTO BASTO IV-SERVICOS MARITIMOS, LDA. PASSAGEIROS
2021/03/01 17:00 ESC202002801 002812 P244AL VIKING HEMMING CSYT6 PORTUGAL 79.02 1615.0 DOCA 1 NORTE - PASSAGEIROS 1.75 1.75 VIANA DO CASTELO PORTO PINTO BASTO IV-SERVICOS MARITIMOS, LDA. PASSAGEIROS
2021/03/01 22:00 ESC202100272 000274 62433 CC BALTIC 0 PAISES BAIXOS 76.0 2405.0 DOCA 2 NORTE 3.0 3.0 VIANA DO CASTELO VIANA DO CASTELO BURMESTER STUVE BATELAO C.SECA ABERTO
2021/03/01 22:00 ESC202100460 000458 6729438 CTE. ÁGUAS CSMD PORTUGAL 25.36 115.38 DOCA 2 NORTE 3.0 3.0 VIANA DO CASTELO VIANA DO CASTELO BURMESTER STUVE REBOCADOR
2021/03/01 22:15 ESC202100378 000377 9246566 WEC VAN GOGH C4TK2 CHIPRE 134.44 9962.0 TERMINAL DE CONTENTORES SUL 9.0 8.5 ANTWERPEN SETÚBAL WEC LINES - IBERO PORTUGAL PORTA-CONTENTORES
2021/03/02 03:00 ESC202100453 000451 9353711 CELTIC FORTUNE MIMX2 REINO UNIDO 89.99 2999.0 DOCA 2 NORTE 3.6 6.0 AVEIRO ELLESMERE PORT NAVEX - EMP. PORT. DE NAVEGACAO C.GERAL,MULTI-DECKER
2021/03/02 06:00 ESC202100349 000348 9328651 X-PRESS VESUVIO 9HA3961 MALTA 133.6 6454.0 TERMINAL DE CONTENTORES SUL 5.8 7.0 CASABLANCA VIGO GARLAND NAVEGACAO PORTA-CONTENTORES
2021/03/02 06:00 ESC202100353 000352 9306067 CALISTO A8HF6 LIBERIA 167.98 15487.0 TERMINAL DE CONTENTORES SUL 9.5 10.0 ROTTERDAM LISBOA GARLAND NAVEGACAO PORTA-CONTENTORES
2021/03/02 06:00 ESC202100230 000232 9516789 AS SELINA D5BG4 LIBERIA 175.47 18358.0 TERMINAL DE CONTENTORES SUL 9.8 9.8 DUNKERQUE LISBOA HAPAG-LLOYD PORTUGAL PORTA-CONTENTORES
2021/03/02 08:00 ESC202100432 000431 9417361 SCALI SANLORENZO 9HA2400 MALTA 87.5 3430.0 TERMINAL PETROLEIRO - POSTO C 5.7 5.0 SINES UNKOWN LOCATION PINTO BASTO IV-SERVICOS MARITIMOS, LDA. TRANSP.GAS LIQUEFEITO
2021/03/02 09:30 ESC202100434 000433 8719097 HAV NES OZ2088 ILHAS FAROE 74.65 2026.0 DOCA 2 NORTE 4.2 6.2 MARIN, PONTEVEDRA DRAMMEN SOFRENA - SOC. AFRET. NAVEGACAO CARGA GERAL N.D.
2021/03/02 12:00 ESC202100421 000420 9760380 LADY ALIDA PBFF PAISES BAIXOS 88.0 2544.0 DOCA 2 SUL 3.9 3.2 PAPENBURG UNKOWN LOCATION WILHELMSEN SHIPS SERVICE PORTUGAL, S.A. CARGA GERAL N.D.
2021/03/02 16:00 ESC202100382 000381 9315018 ELITE PHDA PAISES BAIXOS 149.14 11662.0 TERMINAL DE CONTENTORES SUL 8.0 8.0 VIGO LISBOA WEC LINES - IBERO PORTUGAL PORTA-CONTENTORES
2021/03/02 16:00 ESC202100408 000407 9164548 FURNAS CSBK PORTUGAL 100.58 4450.0 TERMINAL DE CONTENTORES NORTE 5.0 6.0 LISBOA PRAIA DA VITÓRIA NAVEX - EMP. PORT. DE NAVEGACAO PORTA-CONTENTORES
2021/03/03 06:00 ESC202100182 000183 9338967 EM HYDRA A8XP7 LIBERIA 175.5 18334.0 TERMINAL DE CONTENTORES SUL ALGECIRAS ALGECIRAS MAERSK PORTUGAL - AGENTES TRANSPORTES INTERN PORTA-CONTENTORES
2021/03/03 06:00 ESC202100429 000428 9454216 HOLLUM CQAB8 PORTUGAL 115.49 5344.0 DOCA 2 NORTE 4.2 4.2 BILBAO ROTTERDAM OREY COMERCIO E NAVEGACAO GRANELEIRO
2021/03/03 06:00 ESC202100458 000456 9370276 HANNA L 5BPP5 CHIPRE 88.6 2545.0 DOCA 2 SUL 5.6 5.5 NEWPORT GREENORE NAVEX - EMP. PORT. DE NAVEGACAO CARGA GERAL N.D.
2021/03/03 07:00 ESC202100405 000404 9376725 PEREGRINE 9HA2355 MALTA 195.4 25593.0 Terminal Multiusos de Leixões (Molhe Sul) ROTTERDAM ZEEBRUGGE DELPHIS PORTUGAL, LDA RO-RO, N.D.
2021/03/03 07:00 ESC202100333 000332 9255787 ENERGY CQAX2 PORTUGAL 134.62 7660.0 TERMINAL DE CONTENTORES SUL 6.5 6.5 LIVERPOOL SETÚBAL MACANDREWS - NAVEGACAO E TRANSITO, LD PORTA-CONTENTORES
2021/03/03 08:00 ESC202100452 000450 9850288 JOSÉ DUARTE CSMQ PORTUGAL 73.0 1111.0 Terminal Multiusos de Leixões (Molhe Sul) 2.4 2.4 UNKOWN LOCATION PORTO PINTO BASTO IV-SERVICOS MARITIMOS, LDA. DRAGA
2021/03/03 09:00 ESC201900631 000633 8918136 ZENITH 9HXM8 MALTA 208.0 47413.0 TERMINAL DE CRUZEIROS 8.0 8.0 LISBOA AGADIR UNIVERSAL MARITIMA, LDA CRUZEIROS
2021/03/03 13:00 ESC202002885 002896 9472000 ALSTERDIEP 5BKK2 CHIPRE 89.94 2984.0 DOCA 2 SUL 5.0 4.0 ROCHEFORT UNKOWN LOCATION NAVEX - EMP. PORT. DE NAVEGACAO CARGA GERAL N.D.
2021/03/03 15:00 ESC202002154 002159 9610717 JAMAICA BAY VRMC9 HONG KONG 179.9 24428.0 DOCA 2 NORTE 5.5 7.0 FERROL HOUSTON NAVEX - EMP. PORT. DE NAVEGACAO GRANELEIRO
2021/03/03 15:00 ESC202100340 000339 9289063 PINARA A8RF9 LIBERIA 175.59 18334.0 TERMINAL DE CONTENTORES SUL 9.2 CASABLANCA SETÚBAL CMA CGM PORTUGAL PORTA-CONTENTORES
2021/03/03 20:00 ESC202100367 000366 9039250 MSC JOY 3EUB5 PANAMA 202.38 30567.0 TERMINAL DE CONTENTORES SUL 9.5 SINES GIJÓN MEDITERRANEAN SHIPPING CO. PORTA-CONTENTORES
2021/03/04 03:00 ESC202100231 000233 9430870 HANSA NEUBURG D5KB8 LIBERIA 175.46 18326.0 TERMINAL DE CONTENTORES SUL 9.5 9.5 TANGER MED ANTWERPEN HAPAG-LLOYD PORTUGAL PORTA-CONTENTORES
2021/03/04 06:00 ESC202100293 000295 9504061 WES GESA 5BKD4 CHIPRE 151.72 10585.0 TERMINAL DE CONTENTORES NORTE ROTTERDAM LISBOA One Shipping, Unipessoal Lda PORTA-CONTENTORES
2021/03/04 07:00 ESC202100337 000336 9483334 ELBWIND 5BNL5 CHIPRE 151.73 10585.0 TERMINAL DE CONTENTORES SUL 6.5 6.5 SETÚBAL FERROL MACANDREWS - NAVEGACAO E TRANSITO, LD PORTA-CONTENTORES
2021/03/04 07:00 ESC202100457 000455 9594432 BONA D5NX6 LIBERIA 177.37 19943.0 DOCA 4 NORTE 10.0 6.0 MATANZAS UNKOWN LOCATION NAVEX - EMP. PORT. DE NAVEGACAO GRANELEIRO
2021/03/04 17:00 ESC202100027 000027 9388390 FUNCHALENSE 5 CSKN PORTUGAL 127.0 7580.0 TERMINAL DE CONTENTORES NORTE 6.0 6.0 CANIÇAL LISBOA PMAR - Navegação, Lda PORTA-CONTENTORES
2021/03/05 06:00 ESC202100380 000379 9246566 WEC VAN GOGH C4TK2 CHIPRE 134.44 9962.0 TERMINAL DE CONTENTORES SUL 8.0 8.0 SINES VIGO WEC LINES - IBERO PORTUGAL PORTA-CONTENTORES
2021/03/05 06:00 ESC202100456 000454 9084487 HAV TUNA V2QU8 ANTIGUA E BARBUDA 88.08 1960.0 DOCA 2 NORTE 3.2 4.8 VIGO OXELÖSUND TRANSTRAFICO - T. INTERNACIONAIS CARGA GERAL N.D.
2021/03/05 06:00 ESC202100165 000166 9301201 MASTERY D A8ZB5 LIBERIA 154.85 8971.0 TERMINAL DE CONTENTORES SUL 7.0 7.0 LISBOA ROTTERDAM MARMEDSA - AGENCIA MARITIMA, LDA PORTA-CONTENTORES
2021/03/05 07:00 ESC202100406 000405 9209453 CATHERINE 9HA4113 MALTA 182.2 21287.0 Terminal Multiusos de Leixões (Molhe Sul) ROTTERDAM ROTTERDAM DELPHIS PORTUGAL, LDA RO-RO, N.D.
2021/03/05 07:00 ESC202100338 000337 9461594 STEFAN SIBUM 5BQX3 CHIPRE 151.74 10585.0 TERMINAL DE CONTENTORES SUL 6.5 6.5 VIGO SETÚBAL MACANDREWS - NAVEGACAO E TRANSITO, LD PORTA-CONTENTORES
2021/03/05 22:00 ESC202100351 000350 9276341 X-PRESS MONTE BIANCO 9HA3446 MALTA 133.58 6434.0 TERMINAL DE CONTENTORES SUL VIGO LISBOA GARLAND NAVEGACAO PORTA-CONTENTORES
2021/03/06 06:00 ESC202100388 000387 9365984 WEC VAN EYCK 5BPQ5 CHIPRE 141.6 7702.0 TERMINAL DE CONTENTORES SUL 7.5 7.5 LISBOA LIVERPOOL WEC LINES - IBERO PORTUGAL PORTA-CONTENTORES
2021/03/06 06:00 ESC202100375 000374 9246530 KATHERINE BORCHARD V2BW7 ANTIGUA E BARBUDA 134.44 9962.0 TERMINAL DE CONTENTORES NORTE 8.0 8.0 CASTELLÓN DE LA PLANA DUBLIN MARMEDSA - AGENCIA MARITIMA, LDA PORTA-CONTENTORES
2021/03/06 06:00 ESC202100401 000400 9341976 ILHA DA MADEIRA CQAX7 PORTUGAL 129.62 7545.0 TERMINAL DE CONTENTORES NORTE 6.5 7.0 LISBOA CANIÇAL SOFRENA - SOC. AFRET. NAVEGACAO PORTA-CONTENTORES
2021/03/06 06:00 ESC202100376 000375 9242558 NAAMA BORCHARD V2AR8 ANTIGUA E BARBUDA 134.44 9981.0 TERMINAL DE CONTENTORES SUL 8.0 8.0 LIVERPOOL CASTELLÓN DE LA PLANA MARMEDSA - AGENCIA MARITIMA, LDA PORTA-CONTENTORES
2021/03/06 06:00 ESC202100274 000276 9200093 BMI EAGLE TCPB TURQUIA 113.0 4631.0 TERMINAL DE CONTENTORES NORTE LAS PALMAS SETÚBAL PORTMAR PORTA-CONTENTORES
2021/03/06 06:00 ESC202100389 000388 9143972 WEC BRUEGHEL CQIL8 PORTUGAL 121.35 6362.0 TERMINAL DE CONTENTORES SUL 5.0 6.5 FIGUEIRA DA FOZ SETÚBAL WEC LINES - IBERO PORTUGAL PORTA-CONTENTORES
2021/03/06 06:00 ESC202100385 000384 9315018 ELITE PHDA PAISES BAIXOS 149.14 11662.0 TERMINAL DE CONTENTORES SUL 8.0 8.0 SETÚBAL TILBURY WEC LINES - IBERO PORTUGAL PORTA-CONTENTORES
2021/03/06 07:00 ESC202100323 000324 9515591 RAQUEL S CQAC6 PORTUGAL 171.99 17280.0 TERMINAL DE CONTENTORES SUL 9.0 9.0 ALGECIRAS LISBOA PMAR - Navegação, Lda PORTA-CONTENTORES
2021/03/06 07:00 ESC202100412 000411 9312212 ENSEMBLE PHES PAISES BAIXOS 134.6 7642.0 TERMINAL DE CONTENTORES SUL 6.5 6.5 SETÚBAL DUBLIN MACANDREWS - NAVEGACAO E TRANSITO, LD PORTA-CONTENTORES
2021/03/07 00:00 ESC202100391 000390 9437933 GRANDE GABON IBNV ITALIA 211.0 47658.0 TERMINAL DE CONTENTORES NORTE LE HAVRE DAKAR GRIMALDI PORTUGAL LDA RO-RO CONTENTORES
2021/03/07 06:00 ESC202100392 000391 9738674 INTERLINK AMENITY V7GH2 ILHAS MARSHALL 179.95 25546.0 DOCA 4 NORTE NEW ORLEANS UNKOWN LOCATION GARLAND NAVEGACAO GRANELEIRO
2021/03/07 06:00 ESC202100422 000421 9237371 WEC VERMEER 5BLR3 CHIPRE 134.44 9981.0 TERMINAL DE CONTENTORES SUL 8.0 8.0 VIGO SETÚBAL WEC LINES - IBERO PORTUGAL PORTA-CONTENTORES
2021/03/07 21:00 ESC202002168 002173 9513658 BBC LONDON V2FJ2 ANTIGUA E BARBUDA 130.19 7138.0 DOCA 2 SUL 6.5 4.0 SAINT PETERSBURG (EX LENINGRAD) UNKOWN LOCATION NAVEX - EMP. PORT. DE NAVEGACAO CARGA GERAL N.D.
2021/03/08 07:00 ESC202100414 000413 9255775 ENCOUNTER PHA0 PAISES BAIXOS 133.9 7642.0 TERMINAL DE CONTENTORES SUL 6.5 6.5 LIVERPOOL SETÚBAL MACANDREWS - NAVEGACAO E TRANSITO, LD PORTA-CONTENTORES
2021/03/09 06:00 ESC202100424 000423 9315006 ELAN PHCZ PAISES BAIXOS 149.14 11662.0 TERMINAL DE CONTENTORES SUL 8.0 8.0 VIGO LISBOA WEC LINES - IBERO PORTUGAL PORTA-CONTENTORES
2021/03/09 07:00 ESC202100335 000334 9231092 RED CEDAR V7EH4 ILHAS MARSHALL 192.9 23132.0 TERMINAL DE CONTENTORES SUL 11.4 11.4 ANTWERPEN WALVIS BAY MCPAS - AGÊNCIA DE NAVEGAÇÃO, S.A. CARGA GERAL N.D.
2021/03/09 07:00 ESC202100407 000406 9123788 MONTE DA GUIA CSDB PORTUGAL 126.25 7039.0 TERMINAL DE CONTENTORES NORTE 6.5 6.7 LISBOA PONTA DELGADA SOFRENA - SOC. AFRET. NAVEGACAO MISTO C.GERAL/CONTEN.
2021/03/09 12:00 ESC202100433 000432 9163192 MSC UMA CQIV8 PORTUGAL 194.06 23722.0 TERMINAL DE CONTENTORES SUL SINES GIJÓN MEDITERRANEAN SHIPPING CO. PORTA-CONTENTORES
2021/03/09 13:00 ESC202100354 000353 9504073 WES JANINE 5BLW4 CHIPRE 151.72 10685.0 TERMINAL DE CONTENTORES NORTE ROTTERDAM LISBOA One Shipping, Unipessoal Lda PORTA-CONTENTORES
2021/03/10 06:00 ESC202100183 000184 9338967 EM HYDRA A8XP7 LIBERIA 175.5 18334.0 TERMINAL DE CONTENTORES SUL ALGECIRAS ALGECIRAS MAERSK PORTUGAL - AGENTES TRANSPORTES INTERN PORTA-CONTENTORES
2021/03/10 06:00 ESC202100394 000393 9126766 CORELLI 9HZQ8 MALTA 168.8 15120.0 TERMINAL DE CONTENTORES SUL 5.0 7.0 CASABLANCA SETÚBAL ROMEU PORTUGAL PORTA-CONTENTORES
2021/03/10 06:00 ESC202100423 000422 9237371 WEC VERMEER 5BLR3 CHIPRE 134.44 9981.0 TERMINAL DE CONTENTORES SUL 8.0 8.0 SINES VIGO WEC LINES - IBERO PORTUGAL PORTA-CONTENTORES
2021/03/10 22:00 ESC202100395 000394 9491496 ESSENCE PBNL PAISES BAIXOS 168.13 17368.0 TERMINAL DE CONTENTORES SUL LISBOA ROTTERDAM GARLAND NAVEGACAO PORTA-CONTENTORES
2021/03/11 06:00 ESC202100248 000250 9143805 NEONILA 5BCA5 CHIPRE 100.6 3850.0 TERMINAL DE CONTENTORES NORTE 4.7 5.9 LAS PALMAS SETÚBAL PORTMAR CARGA GERAL N.D.
2021/03/11 06:00 ESC202100232 000234 9430870 HANSA NEUBURG D5KB8 LIBERIA 175.46 18326.0 TERMINAL DE CONTENTORES SUL 9.5 9.5 DUNKERQUE LISBOA HAPAG-LLOYD PORTUGAL PORTA-CONTENTORES
2021/03/11 07:00 ESC202100415 000414 9483358 CONMAR AVENUE V2GD2 ANTIGUA E BARBUDA 151.72 10585.0 TERMINAL DE CONTENTORES SUL 6.5 6.5 SETÚBAL FERROL MACANDREWS - NAVEGACAO E TRANSITO, LD PORTA-CONTENTORES
2021/03/12 06:00 ESC202100440 000439 9463578 SLOMAN DISCHARGER V2GZ6 ANTIGUA E BARBUDA 138.07 9530.0 TERMINAL DE CONTENTORES NORTE 6.5 6.5 ANTWERPEN ALGER (ALGIERS) IBERO LINHAS (PORTO) TRANSPORTES CARGA GERAL N.D.
2021/03/12 06:00 ESC202100413 000412 9365984 WEC VAN EYCK 5BPQ5 CHIPRE 141.6 7702.0 TERMINAL DE CONTENTORES SUL 8.0 8.0 SETÚBAL LIVERPOOL WEC LINES - IBERO PORTUGAL PORTA-CONTENTORES
2021/03/12 06:00 ESC202100425 000424 9315006 ELAN PHCZ PAISES BAIXOS 149.14 11662.0 TERMINAL DE CONTENTORES SUL 8.0 8.0 SETÚBAL TILBURY WEC LINES - IBERO PORTUGAL PORTA-CONTENTORES
2021/03/12 06:00 ESC202100427 000426 9302243 SVEN-D PBTF PAISES BAIXOS 141.6 7713.0 TERMINAL DE CONTENTORES SUL 6.4 7.0 LISBOA ROTTERDAM NAVEX - EMP. PORT. DE NAVEGACAO PORTA-CONTENTORES
2021/03/12 07:00 ESC202100416 000415 9461594 STEFAN SIBUM 5BQX3 CHIPRE 151.74 10585.0 TERMINAL DE CONTENTORES SUL 6.5 6.5 VIGO SETÚBAL MACANDREWS - NAVEGACAO E TRANSITO, LD PORTA-CONTENTORES
2021/03/12 07:00 ESC202100371 000370 9150470 LAGOA D4HK CABO VERDE 100.57 3981.0 TERMINAL DE CONTENTORES NORTE 4.8 5.5 MINDELO LISBOA SOFRENA - SOC. AFRET. NAVEGACAO PORTA-CONTENTORES
2021/03/13 06:00 ESC202100379 000378 9246530 KATHERINE BORCHARD V2BW7 ANTIGUA E BARBUDA 134.44 9962.0 TERMINAL DE CONTENTORES NORTE 8.0 8.0 LIVERPOOL CASTELLÓN DE LA PLANA MARMEDSA - AGENCIA MARITIMA, LDA PORTA-CONTENTORES
2021/03/13 06:00 ESC202100426 000425 9143972 WEC BRUEGHEL CQIL8 PORTUGAL 121.35 6362.0 TERMINAL DE CONTENTORES SUL 5.0 5.0 FIGUEIRA DA FOZ SETÚBAL WEC LINES - IBERO PORTUGAL PORTA-CONTENTORES
2021/03/13 06:00 ESC202100377 000376 9242560 AMELIE BORCHARD V2GC4 ANTIGUA E BARBUDA 134.44 9981.0 TERMINAL DE CONTENTORES NORTE 8.0 8.0 CASTELLÓN DE LA PLANA DUBLIN MARMEDSA - AGENCIA MARITIMA, LDA PORTA-CONTENTORES
2021/03/13 06:00 ESC202100402 000401 9341976 ILHA DA MADEIRA CQAX7 PORTUGAL 129.62 7545.0 TERMINAL DE CONTENTORES NORTE 6.5 7.0 LISBOA CANIÇAL SOFRENA - SOC. AFRET. NAVEGACAO PORTA-CONTENTORES
2021/03/13 07:00 ESC202100417 000416 9287792 NEUBURG CQAZ8 PORTUGAL 140.56 7852.0 TERMINAL DE CONTENTORES SUL 6.5 6.5 SETÚBAL DUBLIN MACANDREWS - NAVEGACAO E TRANSITO, LD PORTA-CONTENTORES
2021/03/14 07:00 ESC202100418 000417 9312212 ENSEMBLE PHES PAISES BAIXOS 134.6 7642.0 TERMINAL DE CONTENTORES SUL 6.5 6.5 LIVERPOOL SETÚBAL MACANDREWS - NAVEGACAO E TRANSITO, LD PORTA-CONTENTORES
2021/03/14 20:00 ESC202100461 000459 9292943 XPRESS MONTE CERVINO 9HA3980 MALTA 133.6 6454.0 TERMINAL DE CONTENTORES SUL VIGO LISBOA GARLAND NAVEGACAO PORTA-CONTENTORES
2021/03/15 07:00 ESC202100411 000410 9141613 PONTA DO SOL CSCR PORTUGAL 100.62 4115.0 TERMINAL DE CONTENTORES NORTE 6.1 6.2 LISBOA PRAIA DA VITÓRIA SOFRENA - SOC. AFRET. NAVEGACAO MISTO C.GERAL/CONTEN.
2021/03/15 07:00 ESC202100435 000434 9203538 MSC MALENA V7US8 LIBERIA 207.17 25294.0 TERMINAL DE CONTENTORES SUL SINES GIJÓN MEDITERRANEAN SHIPPING CO. PORTA-CONTENTORES
2021/03/16 12:00 ESC202100463 000461 9584487 HELENA SCHEPERS CQEW6 PORTUGAL 151.72 10318.0 TERMINAL DE CONTENTORES NORTE ROTTERDAM LISBOA One Shipping, Unipessoal Lda PORTA-CONTENTORES
2021/03/17 06:00 ESC202100184 000185 9338967 EM HYDRA A8XP7 LIBERIA 175.5 18334.0 TERMINAL DE CONTENTORES SUL ALGECIRAS ALGECIRAS MAERSK PORTUGAL - AGENTES TRANSPORTES INTERN PORTA-CONTENTORES
2021/03/17 07:00 ESC202100454 000452 9162667 LEONIE P V2OP5 ANTIGUA E BARBUDA 139.03 9991.0 TERMINAL DE CONTENTORES SUL 9.0 9.0 ALGECIRAS LISBOA PMAR - Navegação, Lda PORTA-CONTENTORES
2021/03/17 09:00 ESC201900633 000635 8918136 ZENITH 9HXM8 MALTA 208.0 47413.0 TERMINAL DE CRUZEIROS 8.0 8.0 LISBOA AGADIR UNIVERSAL MARITIMA, LDA CRUZEIROS
2021/03/18 06:00 ESC202100439 000438 9516789 AS SELINA D5BG4 LIBERIA 175.47 18358.0 TERMINAL DE CONTENTORES SUL 9.6 9.6 TANGER MED ANTWERPEN HAPAG-LLOYD PORTUGAL PORTA-CONTENTORES
2021/03/18 07:00 ESC202100419 000418 9483334 ELBWIND 5BNL5 CHIPRE 151.73 10585.0 TERMINAL DE CONTENTORES SUL 6.5 6.5 SETÚBAL FERROL MACANDREWS - NAVEGACAO E TRANSITO, LD PORTA-CONTENTORES
2021/03/19 06:00 ESC202002886 002897 9757113 ARKLOW CLAN EISK6 IRLANDA 87.4 2999.0 DOCA 2 SUL 5.0 4.0 CORK UNKOWN LOCATION NAVEX - EMP. PORT. DE NAVEGACAO CARGA GERAL N.D.
2021/03/19 07:00 ESC202100420 000419 9461594 STEFAN SIBUM 5BQX3 CHIPRE 151.74 10585.0 TERMINAL DE CONTENTORES SUL 6.5 6.5 VIGO SETÚBAL MACANDREWS - NAVEGACAO E TRANSITO, LD PORTA-CONTENTORES
2021/03/19 07:00 ESC202100459 000457 9255787 ENERGY CQAX2 PORTUGAL 134.62 7660.0 TERMINAL DE CONTENTORES SUL 6.5 6.5 LIVERPOOL DUBLIN MACANDREWS - NAVEGACAO E TRANSITO, LD PORTA-CONTENTORES
2021/03/19 20:00 ESC202100462 000460 9306067 CALISTO A8HF6 LIBERIA 167.98 15487.0 TERMINAL DE CONTENTORES SUL LISBOA ROTTERDAM GARLAND NAVEGACAO PORTA-CONTENTORES
2021/03/20 06:00 ESC202100383 000382 9354428 SARA BORCHARD CQEJ PORTUGAL 134.44 9962.0 TERMINAL DE CONTENTORES NORTE 8.0 8.0 CASTELLÓN DE LA PLANA DUBLIN MARMEDSA - AGENCIA MARITIMA, LDA PORTA-CONTENTORES
2021/03/20 06:00 ESC202100403 000402 9341976 ILHA DA MADEIRA CQAX7 PORTUGAL 129.62 7545.0 TERMINAL DE CONTENTORES NORTE 6.5 7.0 LISBOA CANIÇAL SOFRENA - SOC. AFRET. NAVEGACAO PORTA-CONTENTORES
2021/03/20 06:00 ESC202100384 000383 9242560 AMELIE BORCHARD V2GC4 ANTIGUA E BARBUDA 134.44 9981.0 TERMINAL DE CONTENTORES NORTE 8.0 8.0 LIVERPOOL CASTELLÓN DE LA PLANA MARMEDSA - AGENCIA MARITIMA, LDA PORTA-CONTENTORES
2021/03/23 06:00 ESC202100444 000443 9231133 MARIA LUISA V2GY8 ANTIGUA E BARBUDA 192.9 23132.0 TERMINAL DE CONTENTORES SUL VIGO LISBOA NAIP - NAVEGAÇÃO, AGÊNCIA INTERNACIONAL PORTUGUESA CARGA GERAL N.D.
2021/03/23 07:00 ESC202100409 000408 9123788 MONTE DA GUIA CSDB PORTUGAL 126.25 7039.0 TERMINAL DE CONTENTORES NORTE 5.6 7.0 LISBOA PONTA DELGADA SOFRENA - SOC. AFRET. NAVEGACAO MISTO C.GERAL/CONTEN.
2021/03/24 07:00 ESC202100455 000453 9385532 DIANE A TCRP3 TURQUIA 184.0 17687.0 TERMINAL DE CONTENTORES SUL 7.0 7.0 ALGECIRAS LISBOA PMAR - Navegação, Lda PORTA-CONTENTORES
2021/03/24 17:00 ESC202100362 000361 9338967 EM HYDRA A8XP7 LIBERIA 175.5 18334.0 TERMINAL DE CONTENTORES SUL ALGECIRAS ALGECIRAS MAERSK PORTUGAL - AGENTES TRANSPORTES INTERN PORTA-CONTENTORES
2021/03/25 06:00 ESC202100441 000440 9516789 AS SELINA D5BG4 LIBERIA 175.47 18358.0 TERMINAL DE CONTENTORES SUL 9.6 9.6 DUNKERQUE LISBOA HAPAG-LLOYD PORTUGAL PORTA-CONTENTORES
2021/03/27 06:00 ESC202100404 000403 9341976 ILHA DA MADEIRA CQAX7 PORTUGAL 129.62 7545.0 TERMINAL DE CONTENTORES NORTE 6.5 7.0 LISBOA CANIÇAL SOFRENA - SOC. AFRET. NAVEGACAO PORTA-CONTENTORES
2021/03/27 06:00 ESC202100386 000385 9242558 NAAMA BORCHARD V2AR8 ANTIGUA E BARBUDA 134.44 9981.0 TERMINAL DE CONTENTORES NORTE 8.0 8.0 CASTELLÓN DE LA PLANA DUBLIN MARMEDSA - AGENCIA MARITIMA, LDA PORTA-CONTENTORES
2021/03/27 06:00 ESC202100387 000386 9354428 SARA BORCHARD CQEJ PORTUGAL 134.44 9962.0 TERMINAL DE CONTENTORES NORTE 8.0 8.0 LIVERPOOL CASTELLÓN DE LA PLANA MARMEDSA - AGENCIA MARITIMA, LDA PORTA-CONTENTORES
2021/03/31 06:00 ESC202100442 000441 9430870 HANSA NEUBURG D5KB8 LIBERIA 175.46 18326.0 TERMINAL DE CONTENTORES SUL 9.5 9.5 TANGER MED ANTWERPEN HAPAG-LLOYD PORTUGAL PORTA-CONTENTORES
2021/03/31 09:00 ESC201900634 000636 8918136 ZENITH 9HXM8 MALTA 208.0 47413.0 TERMINAL DE CRUZEIROS 8.0 8.0 LISBOA AGADIR UNIVERSAL MARITIMA, LDA CRUZEIROS
2021/03/31 17:00 ESC202100363 000362 9338967 EM HYDRA A8XP7 LIBERIA 175.5 18334.0 TERMINAL DE CONTENTORES SUL ALGECIRAS ALGECIRAS MAERSK PORTUGAL - AGENTES TRANSPORTES INTERN PORTA-CONTENTORES
2021/04/06 07:00 ESC201802816 002825 9641730 MEIN SCHIFF 3 9HA3062 MALTA 293.2 99526.0 TERMINAL DE CRUZEIROS 8.0 8.0 LISBOA LA CORUÑA UNIVERSAL MARITIMA, LDA CRUZEIROS
2021/04/07 17:00 ESC202100364 000363 9338967 EM HYDRA A8XP7 LIBERIA 175.5 18334.0 TERMINAL DE CONTENTORES SUL ALGECIRAS ALGECIRAS MAERSK PORTUGAL - AGENTES TRANSPORTES INTERN PORTA-CONTENTORES
2021/04/08 05:00 ESC202100443 000442 9430870 HANSA NEUBURG D5KB8 LIBERIA 175.46 18326.0 TERMINAL DE CONTENTORES SUL 9.5 9.5 DUNKERQUE LISBOA HAPAG-LLOYD PORTUGAL PORTA-CONTENTORES
2021/04/13 07:00 ESC201802823 002832 9650418 VIKING STAR LAIW6 NORUEGA 228.3 47842.0 TERMINAL DE CRUZEIROS 8.0 8.0 MÁLAGA FALMOUTH JAMES RAWES-NAVEGAÇÃO, LDA CRUZEIROS
2021/04/14 17:00 ESC202100365 000364 9338967 EM HYDRA A8XP7 LIBERIA 175.5 18334.0 TERMINAL DE CONTENTORES SUL ALGECIRAS ALGECIRAS MAERSK PORTUGAL - AGENTES TRANSPORTES INTERN PORTA-CONTENTORES
2021/04/15 09:00 ESC202002837 002848 9835719 WORLD EXPLORER CQAJ7 PORTUGAL 126.0 9923.0 TERMINAL DE CRUZEIROS 4.0 4.0 LISBOA LA CORUÑA NAVEX - EMP. PORT. DE NAVEGACAO CRUZEIROS
2021/04/17 07:00 ESC201901002 001012 9678408 MEIN SCHIFF 4 9HA3513 MALTA 293.6 99526.0 TERMINAL DE CRUZEIROS 8.0 8.0 LISBOA FERROL UNIVERSAL MARITIMA, LDA CRUZEIROS
2021/04/21 06:00 ESC201802173 002182 8700280 AMERA C6EA7 ILHAS BAAMAS 204.0 38848.0 TERMINAL DE CRUZEIROS PONTA DELGADA FERROL GARLAND NAVEGACAO CRUZEIROS
2021/04/21 17:00 ESC202100366 000365 9338967 EM HYDRA A8XP7 LIBERIA 175.5 18334.0 TERMINAL DE CONTENTORES SUL ALGECIRAS ALGECIRAS MAERSK PORTUGAL - AGENTES TRANSPORTES INTERN PORTA-CONTENTORES
2021/04/23 06:00 ESC202001663 001668 9793545 GOLDEN HORIZON 9AA7492 MALTA 162.0 8770.0 TERMINAL DE CRUZEIROS 5.0 5.0 LISBOA LA CORUÑA NAVEX - EMP. PORT. DE NAVEGACAO CRUZEIROS
2021/04/24 06:00 ESC201902020 002040 9451094 CELEBRITY SILHOUETTE 9HA2583 MALTA 315.0 122210.0 TERMINAL DE CRUZEIROS 8.0 8.0 UNKOWN LOCATION UNKOWN LOCATION UNIVERSAL MARITIMA, LDA CRUZEIROS
2021/04/25 07:00 ESC201901939 001956 9490052 AIDAMAR ICSJ ITALIA 253.22 71304.0 DOCA 1 NORTE - PASSAGEIROS 8.1 8.1 LISBOA LA CORUÑA JAMES RAWES-NAVEGAÇÃO, LDA CRUZEIROS
2021/04/25 08:00 ESC202000116 000116 9221554 AIDAVITA IBNP ITALIA 202.85 42289.0 DOCA 1 NORTE - PASSAGEIROS 7.6 7.6 LISBOA LA CORUÑA JAMES RAWES-NAVEGAÇÃO, LDA CRUZEIROS
2021/04/27 07:00 ESC201900956 000966 7304314 ALBATROS C6CN4 ILHAS BAAMAS 205.46 28518.0 DOCA 1 NORTE - PASSAGEIROS TANGIER LA CORUÑA GARLAND NAVEGACAO CRUZEIROS
2021/04/28 09:00 ESC201901363 001374 9169524 AURORA ZCDW9 BERMUDAS 270.0 76152.0 TERMINAL DE CRUZEIROS 8.1 8.1 LISBOA ST PETER PORT JAMES RAWES-NAVEGAÇÃO, LDA CRUZEIROS
2021/04/29 17:00 ESC202100028 000028 9388390 FUNCHALENSE 5 CSKN PORTUGAL 127.0 7580.0 TERMINAL DE CONTENTORES NORTE 6.0 6.0 CANIÇAL LISBOA PMAR - Navegação, Lda PORTA-CONTENTORES
2021/04/30 07:00 ESC201901950 001968 9636955 AIDAPRIMA IBGU ITALIA 299.95 125572.0 TERMINAL DE CRUZEIROS 8.1 8.1 LISBOA LA CORUÑA JAMES RAWES-NAVEGAÇÃO, LDA CRUZEIROS
2021/05/01 11:00 ESC201901377 001388 8802868 SEA SPIRIT C6PJ8 ILHAS BAAMAS 90.36 4200.0 DOCA 1 NORTE - PASSAGEIROS 5.2 5.2 LISBOA UNKOWN LOCATION WILHELMSEN SHIPS SERVICE PORTUGAL, S.A. CRUZEIROS
2021/05/01 11:00 ESC202000281 000280 6602898 OCEAN MAJESTY CQSC PORTUGAL 135.3 10417.0 DOCA 1 NORTE - PASSAGEIROS 5.5 5.5 SEVILLA VIGO WILHELMSEN SHIPS SERVICE PORTUGAL, S.A. CRUZEIROS
2021/05/02 08:00 ESC202002634 002643 9320087 MSC MUSICA 3EFK6 PANAMA 293.8 92409.0 TERMINAL DE CRUZEIROS LISBOA FERROL MEDITERRANEAN SHIPPING CO. CRUZEIROS
2021/05/03 08:00 ESC201900652 000654 9807085 SEVEN SEAS SPLENDOR 00000 ILHAS MARSHALL 223.0 54000.0 TERMINAL DE CRUZEIROS 7.0 7.0 LISBOA FERROL UNIVERSAL MARITIMA, LDA CRUZEIROS
2021/05/05 07:00 ESC201901434 001445 9783564 MEIN SCHIFF 1 9HA4683 MALTA 315.7 111554.0 TERMINAL DE CRUZEIROS 6.0 6.0 LISBOA LA CORUÑA UNIVERSAL MARITIMA, LDA CRUZEIROS
2021/05/05 08:00 ESC201901294 001305 9187899 SIRENA V7RX6 ILHAS MARSHALL 181.0 30277.0 DOCA 1 NORTE - PASSAGEIROS 7.0 7.0 LISBOA PASAJES UNIVERSAL MARITIMA, LDA CRUZEIROS
2021/05/06 08:30 ESC202001672 001677 8903923 SILVER CLOUD C6MQ5 ILHAS BAAMAS 155.81 17014.0 DOCA 1 NORTE - PASSAGEIROS 7.0 7.0 LISBOA LA CORUÑA UNIVERSAL MARITIMA, LDA CRUZEIROS
2021/05/06 17:00 ESC202100029 000029 9388390 FUNCHALENSE 5 CSKN PORTUGAL 127.0 7580.0 TERMINAL DE CONTENTORES NORTE 6.0 6.0 CANIÇAL LISBOA PMAR - Navegação, Lda PORTA-CONTENTORES
2021/05/10 08:00 ESC201901241 001253 8203438 SEADREAM I C6PW8 ILHAS BAAMAS 104.83 4333.0 DOCA 1 NORTE - PASSAGEIROS 4.4 4.4 CADIZ LISBOA PORTMAR CRUZEIROS
2021/05/10 08:00 ESC202002447 002451 8919245 VASCO DA GAMA C6EG8 ILHAS BAAMAS 219.3 55877.0 TERMINAL DE CRUZEIROS 6.0 6.0 LISBOA LA CORUÑA NAVEX - EMP. PORT. DE NAVEGACAO CRUZEIROS
2021/05/11 09:00 ESC202002166 002171 9813084 FRIDTJOF NANSEN na NORUEGA 140.0 20000.0 DOCA 1 NORTE - PASSAGEIROS LISBOA LA CORUÑA OREY COMERCIO E NAVEGACAO CRUZEIROS
2021/05/12 10:00 ESC202100134 000135 8203438 SEADREAM I C6PW8 ILHAS BAAMAS 104.83 4333.0 DOCA 1 NORTE - PASSAGEIROS 4.4 4.4 LISBOA CADIZ PORTMAR CRUZEIROS
2021/05/13 17:00 ESC202100030 000030 9388390 FUNCHALENSE 5 CSKN PORTUGAL 127.0 7580.0 TERMINAL DE CONTENTORES NORTE 6.0 6.0 CANIÇAL LISBOA PMAR - Navegação, Lda PORTA-CONTENTORES
2021/05/20 07:00 ESC201901008 001018 9753208 MEIN SCHIFF 6 9HA4330 MALTA 295.25 98811.0 TERMINAL DE CRUZEIROS 8.0 8.0 LISBOA LA CORUÑA UNIVERSAL MARITIMA, LDA CRUZEIROS
2021/05/20 17:00 ESC202100031 000031 9388390 FUNCHALENSE 5 CSKN PORTUGAL 127.0 7580.0 TERMINAL DE CONTENTORES NORTE 6.0 6.0 CANIÇAL LISBOA PMAR - Navegação, Lda PORTA-CONTENTORES
2021/05/24 07:00 ESC201900515 000517 9141807 DEUTSCHLAND C6BZ6 ILHAS BAAMAS 175.49 22496.0 TERMINAL DE CRUZEIROS LISBOA LA CORUÑA GARLAND NAVEGACAO CRUZEIROS
2021/05/27 17:00 ESC202100032 000032 9388390 FUNCHALENSE 5 CSKN PORTUGAL 127.0 7580.0 TERMINAL DE CONTENTORES NORTE 6.0 6.0 CANIÇAL LISBOA PMAR - Navegação, Lda PORTA-CONTENTORES
2021/05/28 08:00 ESC202000041 9837470 RYNDAM RYND PAISES BAIXOS 299.5 99500.0 TERMINAL DE CRUZEIROS 8.1 8.1 LISBOA LA CORUÑA JAMES RAWES-NAVEGAÇÃO, LDA NAVIO EM CONSTRUÇÃO
2021/05/28 08:00 ESC201900838 000842 9438066 MARINA V7SK2 ILHAS MARSHALL 239.3 66084.0 TERMINAL DE CRUZEIROS 7.4 7.4 LISBOA LA CORUÑA UNIVERSAL MARITIMA, LDA CRUZEIROS
2021/05/28 09:30 ESC201901258 001268 9797371 SCENIC ECLIPSE ? MALTA 165.7 22498.0 DOCA 1 NORTE - PASSAGEIROS 6.0 6.0 LISBOA DOUARNENEZ UNIVERSAL MARITIMA, LDA CRUZEIROS
2021/05/29 09:00 ESC201902113 002134 9871529 WORLD VOYAGER CQAE4 PORTUGAL 126.0 9934.0 TERMINAL DE CRUZEIROS 4.0 4.0 LISBOA LA CORUÑA NAVEX - EMP. PORT. DE NAVEGACAO CRUZEIROS
2021/06/01 07:00 ESC201901649 001662 9437866 SILVER SPIRIT C6XU6 ILHAS BAAMAS 210.7 39444.0 TERMINAL DE CRUZEIROS 6.0 6.0 LISBOA BILBAO UNIVERSAL MARITIMA, LDA CRUZEIROS
2021/06/01 07:30 ESC202002058 002062 9200940 AZAMARA JOURNEY 9HOB8 MALTA 181.0 30277.0 DOCA 1 NORTE - PASSAGEIROS 6.0 6.0 LISBOA LA CORUÑA UNIVERSAL MARITIMA, LDA CRUZEIROS
2021/06/04 07:00 ESC201901081 001093 9417098 SEABOURN SOJOURN C6YA5 ILHAS BAAMAS 198.19 32346.0 DOCA 1 NORTE - PASSAGEIROS 7.2 7.2 CASABLANCA LISBOA JAMES RAWES-NAVEGAÇÃO, LDA CRUZEIROS
2021/06/06 09:00 ESC202100350 000349 5264510 EMPIRE STATE KKFW E.UNIDOS AMERICA 172.2 14557.0 DOCA 1 NORTE - PASSAGEIROS 8.0 8.0 PALMA DE MALLORCA UNKOWN LOCATION MARMEDSA - AGENCIA MARITIMA, LDA INVESTIG./EXPLORACAO
2021/06/06 12:00 ESC202000610 000608 7904889 BERLIN 9HA2295 MALTA 139.3 9570.0 DOCA 1 NORTE - PASSAGEIROS 7.0 7.0 LISBOA LA CORUÑA JAMES RAWES-NAVEGAÇÃO, LDA CRUZEIROS
2021/06/07 08:00 ESC201901161 001174 8919269 RIJNDAM PHFV PAISES BAIXOS 219.3 55819.0 TERMINAL DE CRUZEIROS 7.8 7.8 LA CORUÑA CADIZ JAMES RAWES-NAVEGAÇÃO, LDA CRUZEIROS
2021/06/08 09:00 ESC201901362 001373 9320556 QUEEN VICTORIA ZCEF3 BERMUDAS 294.0 90049.0 TERMINAL DE CRUZEIROS 8.1 8.1 SOUTHAMPTON BARCELONA JAMES RAWES-NAVEGAÇÃO, LDA CRUZEIROS
2021/06/10 07:00 ESC201801514 001521 9156462 INSIGNIA V7DM2 ILHAS MARSHALL 181.0 30277.0 TERMINAL DE CRUZEIROS 8.0 7.85 LISBOA LA CORUÑA UNIVERSAL MARITIMA, LDA CRUZEIROS
2021/06/14 07:00 ESC201900237 000239 9210218 AZAMARA QUEST 9HOM8 MALTA 181.0 30277.0 TERMINAL DE CRUZEIROS 7.0 7.0 LISBOA BILBAO UNIVERSAL MARITIMA, LDA CRUZEIROS
2021/06/19 08:00 ESC202001725 001730 9477438 QUEEN ELIZABETH ZCEF2 BERMUDAS 294.0 90901.0 TERMINAL DE CRUZEIROS 8.1 8.1 LA CORUÑA LISBOA JAMES RAWES-NAVEGAÇÃO, LDA CRUZEIROS
2021/06/25 08:00 ESC201900656 000658 9247144 SEVEN SEAS VOYAGER C6SW3 ILHAS BAAMAS 206.5 42363.0 TERMINAL DE CRUZEIROS 7.0 7.0 LISBOA LA CORUÑA UNIVERSAL MARITIMA, LDA CRUZEIROS
2021/06/29 09:00 ESC202100135 000136 8203438 SEADREAM I C6PW8 ILHAS BAAMAS 104.83 4333.0 DOCA 1 NORTE - PASSAGEIROS 4.4 4.4 SEVILLA VIGO PORTMAR CRUZEIROS
2021/07/02 08:30 ESC202001479 001485 7225910 AEGEAN ODYSSEY HOBW PANAMA 140.5 12094.0 DOCA 1 NORTE - PASSAGEIROS 7.0 7.0 LISBOA LA CORUÑA JAMES RAWES-NAVEGAÇÃO, LDA CRUZEIROS
2021/07/06 06:00 ESC201900307 8456 VENTURE ONE VNTO MALTA 170.0 22800.0 DOCA 1 NORTE - PASSAGEIROS 5.6 5.6 LISBOA LA CORUÑA JAMES RAWES-NAVEGAÇÃO, LDA NAVIO EM CONSTRUÇÃO
2021/07/06 08:00 ESC202100136 000137 9008598 STAR LEGEND C6FR6 ILHAS BAAMAS 135.0 9961.0 DOCA 1 NORTE - PASSAGEIROS 5.7 5.7 LISBOA VIGO PORTMAR CRUZEIROS
2021/07/15 08:00 ESC202100137 000138 8203438 SEADREAM I C6PW8 ILHAS BAAMAS 104.83 4333.0 DOCA 1 NORTE - PASSAGEIROS 4.4 4.4 VIGO LISBOA PORTMAR CRUZEIROS
2021/07/28 09:00 ESC202100352 000351 5264510 EMPIRE STATE KKFW E.UNIDOS AMERICA 172.2 14557.0 DOCA 1 NORTE - PASSAGEIROS 8.0 8.0 PALMA DE MALLORCA SANTA CRUZ DE TENERIFE MARMEDSA - AGENCIA MARITIMA, LDA INVESTIG./EXPLORACAO
2021/08/01 07:00 ESC201902900 002929 9657090 VARIETY VOYAGER 9HA3073 MALTA 65.95 1593.0 DOCA 1 NORTE - PASSAGEIROS 4.0 4.0 VIGO LISBOA NAVEX - EMP. PORT. DE NAVEGACAO CRUZEIROS
2021/08/08 08:00 ESC201901044 001055 9753208 MEIN SCHIFF 6 9HA4330 MALTA 295.25 98811.0 TERMINAL DE CRUZEIROS 8.0 8.0 LISBOA LA CORUÑA UNIVERSAL MARITIMA, LDA CRUZEIROS
2021/08/13 07:00 ESC201900655 000657 9064126 SEVEN SEAS NAVIGATOR C6ZI9 ILHAS BAAMAS 170.69 28803.0 TERMINAL DE CRUZEIROS 7.0 7.0 FERROL LISBOA UNIVERSAL MARITIMA, LDA CRUZEIROS
2021/08/15 07:00 ESC202001727 9837470 RYNDAM RYND PAISES BAIXOS 299.5 99500.0 TERMINAL DE CRUZEIROS 8.1 8.1 LISBOA LA CORUÑA JAMES RAWES-NAVEGAÇÃO, LDA NAVIO EM CONSTRUÇÃO
2021/08/18 07:00 ESC202000611 000609 7904889 BERLIN 9HA2295 MALTA 139.3 9570.0 DOCA 1 NORTE - PASSAGEIROS 7.0 7.0 LA CORUÑA LISBOA JAMES RAWES-NAVEGAÇÃO, LDA CRUZEIROS
2021/08/20 08:00 ESC202001726 001731 9477438 QUEEN ELIZABETH ZCEF2 BERMUDAS 294.0 90901.0 TERMINAL DE CRUZEIROS 8.1 8.1 LA CORUÑA LISBOA JAMES RAWES-NAVEGAÇÃO, LDA CRUZEIROS
2021/08/21 08:00 ESC202002571 002577 8802894 ISLAND SKY C6TQ2 ILHAS BAAMAS 90.36 4200.0 DOCA 1 NORTE - PASSAGEIROS 7.0 7.0 LA CORUÑA LISBOA JAMES RAWES-NAVEGAÇÃO, LDA CRUZEIROS
2021/08/25 07:00 ESC201900658 000660 9247144 SEVEN SEAS VOYAGER C6SW3 ILHAS BAAMAS 206.5 42363.0 TERMINAL DE CRUZEIROS 7.0 7.0 LA CORUÑA LISBOA UNIVERSAL MARITIMA, LDA CRUZEIROS
2021/08/26 09:00 ESC202001480 001486 7225910 AEGEAN ODYSSEY HOBW PANAMA 140.5 12094.0 DOCA 1 NORTE - PASSAGEIROS 7.0 7.0 LISBOA LA CORUÑA JAMES RAWES-NAVEGAÇÃO, LDA CRUZEIROS
2021/08/28 07:00 ESC201902085 002105 9189421 CELEBRITY INFINITY 9HJD9 MALTA 294.0 90940.0 TERMINAL DE CRUZEIROS 8.0 8.0 LA CORUÑA LISBOA UNIVERSAL MARITIMA, LDA CRUZEIROS
2021/09/01 07:00 ESC201902086 002107 9189421 CELEBRITY INFINITY 9HJD9 MALTA 294.0 90940.0 TERMINAL DE CRUZEIROS 8.0 8.0 LISBOA SEVILLA UNIVERSAL MARITIMA, LDA CRUZEIROS
2021/09/05 08:00 ESC202001383 9793545 GOLDEN HORIZON 9AA7492 MALTA 162.0 8770.0 TERMINAL DE CRUZEIROS 6.0 6.0 LA CORUÑA LISBOA NAVEX - EMP. PORT. DE NAVEGACAO CRUZEIROS
2021/09/07 08:00 ESC201900238 000240 9200940 AZAMARA JOURNEY 9HOB8 MALTA 181.0 30277.0 TERMINAL DE CRUZEIROS 7.0 7.0 LA CORUÑA LISBOA UNIVERSAL MARITIMA, LDA CRUZEIROS
2021/09/11 07:00 ESC201900836 000840 9156462 INSIGNIA V7DM2 ILHAS MARSHALL 181.0 30277.0 TERMINAL DE CRUZEIROS 6.0 6.0 ST MALO SAINT GEORGE UNIVERSAL MARITIMA, LDA CRUZEIROS
2021/09/13 08:00 ESC201902903 002932 8506294 BALMORAL C6II4 ILHAS BAAMAS 217.91 43537.0 TERMINAL DE CRUZEIROS 7.5 7.5 UNKOWN LOCATION UNKOWN LOCATION WILHELMSEN SHIPS SERVICE PORTUGAL, S.A. CRUZEIROS
2021/09/15 09:00 ESC201902588 002616 9479864 COSTA FASCINOSA ICPO ITALIA 289.58 113321.0 TERMINAL DE CRUZEIROS 8.1 8.1 LA CORUÑA LISBOA JAMES RAWES-NAVEGAÇÃO, LDA CRUZEIROS
2021/09/17 07:00 ESC201802519 002524 9189421 CELEBRITY INFINITY 9HJD9 MALTA 294.0 90940.0 TERMINAL DE CRUZEIROS 7.0 7.0 LA CORUÑA LISBOA UNIVERSAL MARITIMA, LDA CRUZEIROS
2021/09/18 07:00 ESC201902093 002113 9228356 JEWEL OF THE SEAS C6FW9 ILHAS BAAMAS 293.0 90090.0 TERMINAL DE CRUZEIROS 8.0 8.0 LISBOA GIBRALTAR UNIVERSAL MARITIMA, LDA CRUZEIROS
2021/09/21 07:00 ESC201902088 002108 9189421 CELEBRITY INFINITY 9HJD9 MALTA 294.0 90940.0 TERMINAL DE CRUZEIROS 8.0 8.0 LISBOA SEVILLA UNIVERSAL MARITIMA, LDA CRUZEIROS
2021/09/23 09:00 ESC202002838 002849 9835719 WORLD EXPLORER CQAJ7 PORTUGAL 126.0 9923.0 TERMINAL DE CRUZEIROS 4.0 4.0 LA CORUÑA LISBOA NAVEX - EMP. PORT. DE NAVEGACAO CRUZEIROS
2021/09/26 08:00 ESC202100138 000139 9008598 STAR LEGEND C6FR6 ILHAS BAAMAS 135.0 9961.0 DOCA 1 NORTE - PASSAGEIROS 4.4 4.4 BILBAO LISBOA PORTMAR CRUZEIROS
2021/09/29 08:00 ESC201902117 002138 9871529 WORLD VOYAGER CQAE4 PORTUGAL 126.0 9934.0 TERMINAL DE CRUZEIROS 4.0 4.0 LA CORUÑA LISBOA NAVEX - EMP. PORT. DE NAVEGACAO CRUZEIROS
2021/09/30 07:00 ESC201900654 000656 9807085 SEVEN SEAS SPLENDOR 00000 ILHAS MARSHALL 223.0 54000.0 TERMINAL DE CRUZEIROS 7.0 7.0 LA CORUÑA LISBOA UNIVERSAL MARITIMA, LDA CRUZEIROS
2021/10/02 10:00 ESC202002635 002644 9320087 MSC MUSICA 3EFK6 PANAMA 293.8 92409.0 TERMINAL DE CRUZEIROS FERROL LISBOA MEDITERRANEAN SHIPPING CO. CRUZEIROS
2021/10/03 06:00 ESC201900839 000843 9438066 MARINA V7SK2 ILHAS MARSHALL 239.3 66084.0 DOCA 1 NORTE - PASSAGEIROS 7.4 7.4 VILLAGARCÍA (DE AROUSA) LISBOA UNIVERSAL MARITIMA, LDA CRUZEIROS
2021/10/04 08:00 ESC202002587 002593 9417098 SEABOURN SOJOURN C6YA5 ILHAS BAAMAS 198.19 32346.0 DOCA 1 NORTE - PASSAGEIROS 7.6 7.6 LISBOA LA CORUÑA JAMES RAWES-NAVEGAÇÃO, LDA CRUZEIROS
2021/10/04 09:00 ESC201902413 002437 8907424 BREMEN C6JC3 ILHAS BAAMAS 111.51 6752.0 DOCA 1 NORTE - PASSAGEIROS 4.5 4.5 LA CORUÑA LISBOA UNIVERSAL MARITIMA, LDA CRUZEIROS
2021/10/06 07:00 ESC201902504 002528 9451094 CELEBRITY SILHOUETTE 9HA2583 MALTA 315.0 122210.0 TERMINAL DE CRUZEIROS 8.0 8.0 LISBOA SOUTHAMPTON UNIVERSAL MARITIMA, LDA CRUZEIROS
2021/10/07 07:00 ESC201802521 002526 9189421 CELEBRITY INFINITY 9HJD9 MALTA 294.0 90940.0 TERMINAL DE CRUZEIROS 8.0 8.0 LA CORUÑA LISBOA UNIVERSAL MARITIMA, LDA CRUZEIROS
2021/10/07 08:00 ESC201901650 001663 9437866 SILVER SPIRIT C6XU6 ILHAS BAAMAS 210.7 39444.0 DOCA 1 NORTE - PASSAGEIROS 6.0 6.0 LA CORUÑA LISBOA UNIVERSAL MARITIMA, LDA CRUZEIROS
2021/10/08 17:00 ESC201902481 002504 9228356 JEWEL OF THE SEAS C6FW9 ILHAS BAAMAS 293.0 90090.0 TERMINAL DE CRUZEIROS 8.0 8.0 SEVILLA LISBOA UNIVERSAL MARITIMA, LDA CRUZEIROS
2021/10/10 08:00 ESC202002448 002452 8919245 VASCO DA GAMA C6EG8 ILHAS BAAMAS 219.3 55877.0 TERMINAL DE CRUZEIROS 6.0 6.0 LA CORUÑA LISBOA NAVEX - EMP. PORT. DE NAVEGACAO CRUZEIROS
2021/10/11 08:00 ESC201902311 002337 9189421 CELEBRITY INFINITY 9HJD9 MALTA 294.0 90940.0 TERMINAL DE CRUZEIROS 8.0 8.0 LISBOA SEVILLA UNIVERSAL MARITIMA, LDA CRUZEIROS
2021/10/12 07:00 ESC201901003 001013 9678408 MEIN SCHIFF 4 9HA3513 MALTA 293.6 99526.0 TERMINAL DE CRUZEIROS 8.0 8.0 LA CORUÑA LISBOA UNIVERSAL MARITIMA, LDA CRUZEIROS
2021/10/13 07:00 ESC201901340 001351 9451094 CELEBRITY SILHOUETTE 9HA2583 MALTA 315.0 122210.0 TERMINAL DE CRUZEIROS 8.0 8.0 VIGO LISBOA UNIVERSAL MARITIMA, LDA CRUZEIROS
2021/10/13 08:00 ESC201902282 9833175 VIKING SEVEN VKSVN NORUEGA 228.2 47800.0 DOCA 1 NORTE - PASSAGEIROS 8.0 8.0 FALMOUTH MÁLAGA JAMES RAWES-NAVEGAÇÃO, LDA NAVIO EM CONSTRUÇÃO
2021/10/15 07:00 ESC202001877 001881 7108930 BLACK WATCH C6RS5 ILHAS BAAMAS 205.47 28613.0 TERMINAL DE CRUZEIROS 7.5 7.5 UNKOWN LOCATION UNKOWN LOCATION WILHELMSEN SHIPS SERVICE PORTUGAL, S.A. CRUZEIROS
2021/10/17 07:00 ESC202000365 000364 9800000 SPIRIT OF ADVENTURE SPDAD MALTA 236.0 57600.0 TERMINAL DE CRUZEIROS 7.6 7.6 LA CORUÑA LISBOA JAMES RAWES-NAVEGAÇÃO, LDA CRUZEIROS
2021/10/18 07:00 ESC201900835 000839 9187899 SIRENA V7RX6 ILHAS MARSHALL 181.0 30277.0 TERMINAL DE CRUZEIROS 6.0 6.0 LA CORUÑA HORTA UNIVERSAL MARITIMA, LDA CRUZEIROS
2021/10/20 08:00 ESC201902505 002529 9451094 CELEBRITY SILHOUETTE 9HA2583 MALTA 315.0 122210.0 TERMINAL DE CRUZEIROS 8.0 8.0 SOUTHAMPTON LANZAROTE UNIVERSAL MARITIMA, LDA CRUZEIROS
2021/10/21 08:00 ESC202002593 002599 9195157 NORWEGIAN STAR C6FR3 ILHAS BAAMAS 294.13 91740.0 TERMINAL DE CRUZEIROS 7.0 7.0 LA CORUÑA SOMPTING UNIVERSAL MARITIMA, LDA CRUZEIROS
2021/10/23 09:00 ESC202000788 000789 8506294 BALMORAL C6II4 ILHAS BAAMAS 217.91 43537.0 TERMINAL DE CRUZEIROS 5.7 LISBOA UNKOWN LOCATION WILHELMSEN SHIPS SERVICE PORTUGAL, S.A. CRUZEIROS
2021/11/01 08:00 ESC201902670 002699 9490052 AIDAMAR ICSJ ITALIA 253.22 71304.0 TERMINAL DE CRUZEIROS 8.1 8.1 LA CORUÑA LISBOA JAMES RAWES-NAVEGAÇÃO, LDA CRUZEIROS
2021/11/03 08:00 ESC202002594 002600 9195157 NORWEGIAN STAR C6FR3 ILHAS BAAMAS 294.13 91740.0 TERMINAL DE CRUZEIROS 7.0 7.0 LA CORUÑA LISBOA UNIVERSAL MARITIMA, LDA CRUZEIROS
2021/11/04 07:00 ESC201902666 002695 9221554 AIDAVITA IBNP ITALIA 202.85 42289.0 TERMINAL DE CRUZEIROS 8.0 8.0 PORTLAND FUNCHAL, MADEIRA JAMES RAWES-NAVEGAÇÃO, LDA CRUZEIROS
2021/11/06 08:00 ESC202002334 002339 9189421 CELEBRITY INFINITY 9HJD9 MALTA 294.0 90940.0 TERMINAL DE CRUZEIROS 7.0 7.0 SEVILLA LISBOA UNIVERSAL MARITIMA, LDA CRUZEIROS
2021/11/07 11:00 ESC201901652 001665 8201480 ARTANIA C6CY5 ILHAS BAAMAS 230.61 44656.0 TERMINAL DE CRUZEIROS FUNCHAL, MADEIRA LA CORUÑA GARLAND NAVEGACAO CRUZEIROS
2021/11/08 08:00 ESC202002335 002340 9189421 CELEBRITY INFINITY 9HJD9 MALTA 294.0 90940.0 TERMINAL DE CRUZEIROS 7.0 7.0 LISBOA SEVILLA UNIVERSAL MARITIMA, LDA CRUZEIROS
2021/11/16 07:00 ESC201900958 000968 8201480 ARTANIA C6CY5 ILHAS BAAMAS 230.61 44656.0 TERMINAL DE CRUZEIROS FERROL LISBOA GARLAND NAVEGACAO CRUZEIROS
2021/11/20 08:00 ESC202002336 002341 9189421 CELEBRITY INFINITY 9HJD9 MALTA 294.0 90940.0 TERMINAL DE CRUZEIROS 7.0 7.0 SEVILLA LISBOA UNIVERSAL MARITIMA, LDA CRUZEIROS
2021/11/22 08:00 ESC202002338 002343 9189421 CELEBRITY INFINITY 9HJD9 MALTA 294.0 90940.0 TERMINAL DE CRUZEIROS 7.0 7.0 LISBOA SEVILLA UNIVERSAL MARITIMA, LDA CRUZEIROS
2021/12/04 08:00 ESC201902438 002462 9636955 AIDAPRIMA IBGU ITALIA 299.95 125572.0 TERMINAL DE CRUZEIROS 8.2 8.2 LA CORUÑA LISBOA JAMES RAWES-NAVEGAÇÃO, LDA CRUZEIROS
2021/12/05 07:00 ESC201900959 000969 8201480 ARTANIA C6CY5 ILHAS BAAMAS 230.61 44656.0 TERMINAL DE CRUZEIROS FERROL LISBOA GARLAND NAVEGACAO CRUZEIROS
2021/12/21 08:00 ESC202000366 000365 9802683 SPIRIT OF DISCOVERY MEYE7 REINO UNIDO 236.0 58119.0 TERMINAL DE CRUZEIROS 7.6 7.6 LA CORUÑA LISBOA JAMES RAWES-NAVEGAÇÃO, LDA CRUZEIROS
2022/01/02 08:00 ESC202000020 000020 9221554 AIDAVITA IBNP ITALIA 202.85 42289.0 TERMINAL DE CRUZEIROS 8.0 8.0 LISBOA ROTTERDAM JAMES RAWES-NAVEGAÇÃO, LDA CRUZEIROS
2022/01/31 08:00 ESC201902120 002141 9871529 WORLD VOYAGER CQAE4 PORTUGAL 126.0 9934.0 DOCA 1 NORTE - PASSAGEIROS 4.0 4.0 LA CORUÑA LISBOA NAVEX - EMP. PORT. DE NAVEGACAO CRUZEIROS
2022/02/14 08:00 ESC202000021 000021 9221554 AIDAVITA IBNP ITALIA 202.85 42289.0 TERMINAL DE CRUZEIROS 8.1 8.1 LISBOA ROTTERDAM JAMES RAWES-NAVEGAÇÃO, LDA CRUZEIROS
2022/02/15 07:00 ESC202001078 001084 9490040 AIDASOL ICPE ITALIA 253.33 71304.0 TERMINAL DE CRUZEIROS 8.1 8.1 LISBOA CHERBOURG JAMES RAWES-NAVEGAÇÃO, LDA CRUZEIROS
2022/02/24 07:00 ESC201902667 002696 9221554 AIDAVITA IBNP ITALIA 202.85 42289.0 TERMINAL DE CRUZEIROS 8.0 8.0 PORTLAND FUNCHAL, MADEIRA JAMES RAWES-NAVEGAÇÃO, LDA CRUZEIROS
2022/02/27 08:00 ESC201902442 002466 9636955 AIDAPRIMA IBGU ITALIA 299.95 125572.0 TERMINAL DE CRUZEIROS 8.2 8.2 LISBOA LA CORUÑA JAMES RAWES-NAVEGAÇÃO, LDA CRUZEIROS
2022/02/28 06:00 ESC201902114 002135 9871529 WORLD VOYAGER CQAE4 PORTUGAL 126.0 9934.0 DOCA 1 NORTE - PASSAGEIROS 4.0 4.0 LA CORUÑA LISBOA NAVEX - EMP. PORT. DE NAVEGACAO CRUZEIROS
2022/04/08 08:00 ESC202001481 001487 9490052 AIDAMAR ICSJ ITALIA 253.22 71304.0 TERMINAL DE CRUZEIROS 8.1 8.1 LISBOA LA CORUÑA JAMES RAWES-NAVEGAÇÃO, LDA CRUZEIROS
2022/04/12 08:00 ESC201902262 002286 9796262 VIKING JUPITER LAYP7 NORUEGA 228.26 47861.0 TERMINAL DE CRUZEIROS 8.0 8.0 MÁLAGA FALMOUTH JAMES RAWES-NAVEGAÇÃO, LDA CRUZEIROS
2022/04/14 10:00 ESC202000835 9007491 CLUB MED 2 FNIR WALLIS E FUTUNA 187.0 14983.0 TERMINAL DE CRUZEIROS 5.2 5.2 LISBOA CAEN PINTO BASTO IV-SERVICOS MARITIMOS, LDA. CRUZEIROS
2022/04/15 07:00 ESC202001850 001853 9753208 MEIN SCHIFF 6 9HA4330 MALTA 295.25 98811.0 TERMINAL DE CRUZEIROS 8.0 8.0 LISBOA LA CORUÑA UNIVERSAL MARITIMA, LDA CRUZEIROS
2022/04/16 08:00 ESC202002595 002601 9189421 CELEBRITY INFINITY 9HJD9 MALTA 294.0 90940.0 TERMINAL DE CRUZEIROS 7.0 7.0 LISBOA SEVILLA UNIVERSAL MARITIMA, LDA CRUZEIROS
2022/04/16 11:00 ESC201901892 001909 7304314 ALBATROS C6CN4 ILHAS BAAMAS 205.46 28518.0 TERMINAL DE CRUZEIROS FUNCHAL, MADEIRA LA CORUÑA GARLAND NAVEGACAO CRUZEIROS
2022/04/19 08:00 ESC201901327 001338 9641730 MEIN SCHIFF 3 9HA3062 MALTA 293.2 99526.0 TERMINAL DE CRUZEIROS 8.0 8.0 LISBOA LA CORUÑA UNIVERSAL MARITIMA, LDA CRUZEIROS
2022/04/20 08:00 ESC201902393 999000 VIKING 8 VIKIN NORUEGA 228.2 47800.0 TERMINAL DE CRUZEIROS 8.0 8.0 MÁLAGA FALMOUTH JAMES RAWES-NAVEGAÇÃO, LDA NAVIO EM CONSTRUÇÃO
2022/04/20 08:00 ESC202000721 000721 9636967 AIDAPERLA IBRL ITALIA 299.95 125572.0 TERMINAL DE CRUZEIROS 8.1 8.1 FUNCHAL, MADEIRA LA CORUÑA JAMES RAWES-NAVEGAÇÃO, LDA CRUZEIROS
2022/04/21 08:00 ESC202001473 9007491 CLUB MED 2 FNIR WALLIS E FUTUNA 187.0 14983.0 TERMINAL DE CRUZEIROS 6.2 6.2 TARRAGONA BAYONNE PINTO BASTO IV-SERVICOS MARITIMOS, LDA. CRUZEIROS
2022/04/24 09:00 ESC201902380 002406 9451094 CELEBRITY SILHOUETTE 9HA2583 MALTA 315.0 122210.0 TERMINAL DE CRUZEIROS 8.6 8.6 VIGO LA CORUÑA UNIVERSAL MARITIMA, LDA CRUZEIROS
2022/04/25 09:00 ESC202000219 000219 9192179 SILVER WHISPER C6FN7 ILHAS BAAMAS 186.0 28258.0 TERMINAL DE CRUZEIROS 6.0 6.0 LISBOA LA CORUÑA UNIVERSAL MARITIMA, LDA CRUZEIROS
2022/04/25 12:00 ESC202001143 001149 7304314 ALBATROS C6CN4 ILHAS BAAMAS 205.46 28518.0 TERMINAL DE CRUZEIROS LA CORUÑA CASABLANCA GARLAND NAVEGACAO CRUZEIROS
2022/04/28 08:00 ESC202100450 000449 9502518 L'AUSTRAL FLTU FRANCA 142.1 10944.0 DOCA 1 NORTE - PASSAGEIROS 7.6 7.6 LISBOA VIGO JAMES RAWES-NAVEGAÇÃO, LDA CRUZEIROS
2022/04/29 08:00 ESC201901329 001340 9678408 MEIN SCHIFF 4 9HA3513 MALTA 293.6 99526.0 TERMINAL DE CRUZEIROS 8.0 8.0 LISBOA LA CORUÑA UNIVERSAL MARITIMA, LDA CRUZEIROS
2022/04/30 08:00 ESC202002223 002227 9333175 VENTURA ZCDT2 BERMUDAS 288.61 116017.0 TERMINAL DE CRUZEIROS 8.1 8.1 LISBOA CHERBOURG JAMES RAWES-NAVEGAÇÃO, LDA CRUZEIROS
2022/05/02 08:00 ESC201902392 002417 9650418 VIKING STAR LAIW6 NORUEGA 228.3 47842.0 TERMINAL DE CRUZEIROS 8.0 8.0 MÁLAGA FALMOUTH JAMES RAWES-NAVEGAÇÃO, LDA CRUZEIROS
2022/05/02 08:00 ESC202001632 001637 8802882 HEBRIDEAN SKY C6BG2 ILHAS BAAMAS 90.36 4200.0 DOCA 1 NORTE - PASSAGEIROS 7.0 7.0 LISBOA LA CORUÑA JAMES RAWES-NAVEGAÇÃO, LDA CRUZEIROS
2022/05/06 08:00 ESC202100448 000447 9502506 LE BOREAL FLSY FRANCA 140.0 10944.0 DOCA 1 NORTE - PASSAGEIROS 7.5 7.5 LISBOA VIGO JAMES RAWES-NAVEGAÇÃO, LDA CRUZEIROS
2022/05/06 08:00 ESC201901891 001908 9387073 MSC POESIA 3EPL4 PANAMA 293.8 92627.0 TERMINAL DE CRUZEIROS LISBOA FERROL MEDITERRANEAN SHIPPING CO. CRUZEIROS
2022/05/06 09:00 ESC202001041 001047 8802868 SEA SPIRIT C6PJ8 ILHAS BAAMAS 90.36 4200.0 DOCA 1 NORTE - PASSAGEIROS 4.9 4.9 LISBOA LA CORUÑA WILHELMSEN SHIPS SERVICE PORTUGAL, S.A. CRUZEIROS
2022/05/07 08:00 ESC202001883 001887 9838618 SILVER MOON ITP0223 ITALIA 212.8 41000.0 TERMINAL DE CRUZEIROS 8.0 8.0 UNKOWN LOCATION UNKOWN LOCATION UNIVERSAL MARITIMA, LDA CRUZEIROS
2022/05/07 09:00 ESC201902779 002810 9479852 COSTA FAVOLOSA ICPK ITALIA 289.65 113216.0 TERMINAL DE CRUZEIROS 8.2 8.2 LISBOA LA CORUÑA JAMES RAWES-NAVEGAÇÃO, LDA CRUZEIROS
2022/05/08 08:00 ESC201902789 002820 9783564 MEIN SCHIFF 1 9HA4683 MALTA 315.7 111554.0 TERMINAL DE CRUZEIROS 6.0 6.0 LISBOA LA CORUÑA UNIVERSAL MARITIMA, LDA CRUZEIROS
2022/05/10 08:00 ESC202002626 002634 9838383 CELEBRITY APEX 9HA4960 MALTA 306.0 129500.0 TERMINAL DE CRUZEIROS 7.0 7.0 LISBOA LE HAVRE UNIVERSAL MARITIMA, LDA CRUZEIROS
2022/05/13 08:00 ESC202100451 9852418 LE BELLOT LBLOT FRANCA 131.4 9900.0 DOCA 1 NORTE - PASSAGEIROS 7.5 7.5 LISBOA LA CORUÑA JAMES RAWES-NAVEGAÇÃO, LDA NAVIO EM CONSTRUÇÃO
2022/05/14 08:00 ESC202002449 002453 8919245 VASCO DA GAMA C6EG8 ILHAS BAAMAS 219.3 55877.0 TERMINAL DE CRUZEIROS 6.0 6.0 LISBOA LA CORUÑA NAVEX - EMP. PORT. DE NAVEGACAO CRUZEIROS
2022/05/14 08:00 ESC202001366 001373 9807085 SEVEN SEAS SPLENDOR 00000 ILHAS MARSHALL 223.0 54000.0 TERMINAL DE CRUZEIROS 7.0 7.0 LISBOA FERROL UNIVERSAL MARITIMA, LDA CRUZEIROS
2022/05/27 07:00 ESC202001415 001421 9187899 SIRENA V7RX6 ILHAS MARSHALL 181.0 30277.0 DOCA 1 NORTE - PASSAGEIROS 7.0 7.0 LISBOA LA CORUÑA UNIVERSAL MARITIMA, LDA CRUZEIROS
2022/05/27 08:00 ESC202001986 001989 9223954 CARNIVAL PRIDE H3VU PANAMA 292.5 86071.0 TERMINAL DE CRUZEIROS 8.1 8.1 LA CORUÑA LISBOA JAMES RAWES-NAVEGAÇÃO, LDA CRUZEIROS
2022/05/28 08:00 ESC202002225 002229 9333175 VENTURA ZCDT2 BERMUDAS 288.61 116017.0 TERMINAL DE CRUZEIROS 8.1 8.1 LISBOA ST PETER PORT JAMES RAWES-NAVEGAÇÃO, LDA CRUZEIROS
2022/05/30 08:00 ESC202001401 001407 9438066 MARINA V7SK2 ILHAS MARSHALL 239.3 66084.0 TERMINAL DE CRUZEIROS 7.0 7.0 LISBOA LA CORUÑA UNIVERSAL MARITIMA, LDA CRUZEIROS
2022/06/02 08:00 ESC202001630 9833187 VIKING MARS VIKMRS NORUEGA 228.26 47800.0 TERMINAL DE CRUZEIROS 8.1 8.1 LISBOA LA CORUÑA JAMES RAWES-NAVEGAÇÃO, LDA NAVIO EM CONSTRUÇÃO
2022/06/07 07:00 ESC202000270 9910000 VENTURE TWO VENTT PAISES BAIXOS 290.0 100000.0 TERMINAL DE CRUZEIROS 8.1 8.1 LISBOA LA CORUÑA JAMES RAWES-NAVEGAÇÃO, LDA NAVIO EM CONSTRUÇÃO
2022/06/12 08:00 ESC201900017 000017 8903923 SILVER CLOUD C6MQ5 ILHAS BAAMAS 155.81 17014.0 DOCA 1 NORTE - PASSAGEIROS 7.0 7.0 LISBOA PORTIMAO UNIVERSAL MARITIMA, LDA CRUZEIROS
2022/06/14 07:00 ESC201901247 9880673 OCEAN ODYSSEY . ILHAS BAAMAS 104.4 7892.0 DOCA 1 NORTE - PASSAGEIROS 4.4 4.4 LISBOA VIGO PORTMAR NAVIO EM CONSTRUÇÃO
2022/06/15 08:00 ESC201901713 001728 9156462 INSIGNIA V7DM2 ILHAS MARSHALL 181.0 30277.0 TERMINAL DE CRUZEIROS 6.0 6.0 LISBOA LA CORUÑA UNIVERSAL MARITIMA, LDA CRUZEIROS
2022/06/17 07:00 ESC202002811 002822 9000699 BRAEMAR C6SY7 ILHAS BAAMAS 195.82 24344.0 TERMINAL DE CRUZEIROS 7.5 7.5 UNKOWN LOCATION UNKOWN LOCATION WILHELMSEN SHIPS SERVICE PORTUGAL, S.A. CRUZEIROS
2022/06/19 11:00 ESC202000390 000389 9797371 SCENIC ECLIPSE ? MALTA 165.7 22498.0 TERMINAL DE CRUZEIROS 6.0 6.0 LISBOA VIGO MARMEDSA - AGENCIA MARITIMA, LDA CRUZEIROS
2022/06/20 07:00 ESC202000296 000295 9210218 AZAMARA QUEST 9HOM8 MALTA 181.0 30277.0 DOCA 1 NORTE - PASSAGEIROS 5.0 5.0 LISBOA ST PETER PORT UNIVERSAL MARITIMA, LDA CRUZEIROS
2022/06/22 08:00 ESC202000422 000421 9333175 VENTURA ZCDT2 BERMUDAS 288.61 116017.0 TERMINAL DE CRUZEIROS 8.1 8.1 LISBOA ST PETER PORT JAMES RAWES-NAVEGAÇÃO, LDA CRUZEIROS
2022/07/01 08:00 ESC201902751 002783 9871531 WORLD NAVIGATOR n/d PORTUGAL 126.0 9315.0 TERMINAL DE CRUZEIROS 4.0 4.0 VIANA DO CASTELO LISBOA NAVEX - EMP. PORT. DE NAVEGACAO CRUZEIROS
2022/07/02 08:00 ESC202002226 002230 9333175 VENTURA ZCDT2 BERMUDAS 288.61 116017.0 TERMINAL DE CRUZEIROS 8.1 8.1 LISBOA ST PETER PORT JAMES RAWES-NAVEGAÇÃO, LDA CRUZEIROS
2022/07/08 07:00 ESC201901394 001406 9066667 CRYSTAL SYMPHONY C6MY5 ILHAS BAAMAS 238.01 51044.0 TERMINAL DE CRUZEIROS 8.0 8.0 LISBOA FERROL PINTO BASTO IV-SERVICOS MARITIMOS, LDA. CRUZEIROS
2022/07/12 08:00 ESC202000419 000418 9333175 VENTURA ZCDT2 BERMUDAS 288.61 116017.0 TERMINAL DE CRUZEIROS 8.1 8.1 ST PETER PORT LISBOA JAMES RAWES-NAVEGAÇÃO, LDA CRUZEIROS
2022/07/26 07:00 ESC202002470 002476 9333175 VENTURA ZCDT2 BERMUDAS 288.61 116017.0 TERMINAL DE CRUZEIROS 8.1 8.1 CARTAGENA LA CORUÑA JAMES RAWES-NAVEGAÇÃO, LDA CRUZEIROS
2022/07/27 08:00 ESC202001362 001369 9451094 CELEBRITY SILHOUETTE 9HA2583 MALTA 315.0 122210.0 TERMINAL DE CRUZEIROS 8.0 8.0 LISBOA LA CORUÑA UNIVERSAL MARITIMA, LDA CRUZEIROS
2022/07/27 08:00 ESC202002588 002594 9483126 SEABOURN QUEST C6YZ5 ILHAS BAAMAS 198.19 32477.0 DOCA 1 NORTE - PASSAGEIROS 7.6 7.6 LISBOA LA CORUÑA JAMES RAWES-NAVEGAÇÃO, LDA CRUZEIROS
2022/08/02 08:00 ESC202002227 002231 9333175 VENTURA ZCDT2 BERMUDAS 288.61 116017.0 TERMINAL DE CRUZEIROS 8.1 8.1 ST PETER PORT LISBOA JAMES RAWES-NAVEGAÇÃO, LDA CRUZEIROS
2022/08/03 08:00 ESC202002574 002580 9223954 CARNIVAL PRIDE H3VU PANAMA 292.5 86071.0 TERMINAL DE CRUZEIROS 8.1 8.1 LA CORUÑA LISBOA JAMES RAWES-NAVEGAÇÃO, LDA CRUZEIROS
2022/08/05 08:00 ESC202002483 002489 9320556 QUEEN VICTORIA ZCEF3 BERMUDAS 294.0 90049.0 TERMINAL DE CRUZEIROS 8.1 8.1 LA CORUÑA LISBOA JAMES RAWES-NAVEGAÇÃO, LDA CRUZEIROS
2022/08/07 08:00 ESC202001848 001851 9678408 MEIN SCHIFF 4 9HA3513 MALTA 293.6 99526.0 TERMINAL DE CRUZEIROS 8.0 8.0 LA CORUÑA LISBOA UNIVERSAL MARITIMA, LDA CRUZEIROS
2022/08/13 08:00 ESC202002159 002164 9850460 SCENIC ECLIPSE 2 0 MALTA 165.7 22498.0 DOCA 1 NORTE - PASSAGEIROS 5.3 5.3 LISBOA VIGO MARMEDSA - AGENCIA MARITIMA, LDA CRUZEIROS
2022/08/17 07:00 ESC202002228 002232 9333175 VENTURA ZCDT2 BERMUDAS 288.61 116017.0 TERMINAL DE CRUZEIROS 8.1 8.1 LISBOA ST PETER PORT JAMES RAWES-NAVEGAÇÃO, LDA CRUZEIROS
2022/08/20 08:00 ESC202001365 001372 9064126 SEVEN SEAS NAVIGATOR C6ZI9 ILHAS BAAMAS 170.69 28803.0 TERMINAL DE CRUZEIROS 7.0 7.0 FERROL LISBOA UNIVERSAL MARITIMA, LDA CRUZEIROS
2022/08/27 07:00 ESC202000538 000538 9189421 CELEBRITY INFINITY 9HJD9 MALTA 294.0 90940.0 TERMINAL DE CRUZEIROS 6.0 6.0 LA CORUÑA LISBOA UNIVERSAL MARITIMA, LDA CRUZEIROS
2022/08/31 07:00 ESC202000539 000539 9189421 CELEBRITY INFINITY 9HJD9 MALTA 294.0 90940.0 TERMINAL DE CRUZEIROS 6.0 6.0 LISBOA CADIZ UNIVERSAL MARITIMA, LDA CRUZEIROS
2022/09/01 06:00 ESC202001403 001409 9156462 INSIGNIA V7DM2 ILHAS MARSHALL 181.0 30277.0 TERMINAL DE CRUZEIROS 7.0 7.0 FERROL LISBOA UNIVERSAL MARITIMA, LDA CRUZEIROS
2022/09/02 08:00 ESC202000412 000411 9226906 ARCADIA ZCDN2 BERMUDAS 285.11 83781.0 TERMINAL DE CRUZEIROS 8.1 8.1 ST PETER PORT LISBOA JAMES RAWES-NAVEGAÇÃO, LDA CRUZEIROS
2022/09/03 08:00 ESC202002484 002490 9156515 VOLENDAM PCHM PAISES BAIXOS 237.91 61214.0 TERMINAL DE CRUZEIROS 8.1 8.1 LA CORUÑA LISBOA JAMES RAWES-NAVEGAÇÃO, LDA CRUZEIROS
2022/09/04 07:00 ESC201901248 9880673 OCEAN ODYSSEY . ILHAS BAAMAS 104.4 7892.0 DOCA 1 NORTE - PASSAGEIROS 4.4 4.4 VILLAGARCÍA (DE AROUSA) LISBOA PORTMAR NAVIO EM CONSTRUÇÃO
2022/09/05 07:00 ESC202002054 002058 8903923 SILVER CLOUD C6MQ5 ILHAS BAAMAS 155.81 17014.0 DOCA 1 NORTE - PASSAGEIROS 6.0 6.0 UNKOWN LOCATION UNKOWN LOCATION UNIVERSAL MARITIMA, LDA CRUZEIROS
2022/09/06 07:30 ESC202001987 001990 9223954 CARNIVAL PRIDE H3VU PANAMA 292.5 86071.0 TERMINAL DE CRUZEIROS 8.1 8.1 LA CORUÑA LISBOA JAMES RAWES-NAVEGAÇÃO, LDA CRUZEIROS
2022/09/07 08:00 ESC202000298 000297 9210218 AZAMARA QUEST 9HOM8 MALTA 181.0 30277.0 DOCA 1 NORTE - PASSAGEIROS 6.0 6.0 LA CORUÑA LISBOA UNIVERSAL MARITIMA, LDA CRUZEIROS
2022/09/09 07:30 ESC202100449 000448 8802882 HEBRIDEAN SKY C6BG2 ILHAS BAAMAS 90.36 4200.0 DOCA 1 NORTE - PASSAGEIROS 6.0 6.0 VILLAGARCÍA (DE AROUSA) FIGUEIRA DA FOZ JAMES RAWES-NAVEGAÇÃO, LDA CRUZEIROS
2022/09/10 08:00 ESC202002229 002233 9333175 VENTURA ZCDT2 BERMUDAS 288.61 116017.0 TERMINAL DE CRUZEIROS 8.1 8.1 LISBOA ST PETER PORT JAMES RAWES-NAVEGAÇÃO, LDA CRUZEIROS
2022/09/13 06:00 ESC202001414 001420 9247144 SEVEN SEAS VOYAGER C6SW3 ILHAS BAAMAS 206.5 42363.0 TERMINAL DE CRUZEIROS 7.0 7.0 VILLAGARCÍA (DE AROUSA) LISBOA UNIVERSAL MARITIMA, LDA CRUZEIROS
2022/09/16 09:00 ESC202000361 000360 9219331 THE WORLD C6RW4 ILHAS BAAMAS 196.35 43188.0 DOCA 1 NORTE - PASSAGEIROS 6.9 6.9 COBH TANGER MED WILHELMSEN SHIPS SERVICE PORTUGAL, S.A. CRUZEIROS
2022/09/17 08:00 ESC202002592 002598 9838383 CELEBRITY APEX 9HA4960 MALTA 306.0 129500.0 TERMINAL DE CRUZEIROS 7.0 7.0 LA CORUÑA LISBOA UNIVERSAL MARITIMA, LDA CRUZEIROS
2022/09/18 07:00 ESC201901395 001407 9066667 CRYSTAL SYMPHONY C6MY5 ILHAS BAAMAS 238.01 51044.0 TERMINAL DE CRUZEIROS 8.0 8.0 LA CORUÑA LISBOA PINTO BASTO IV-SERVICOS MARITIMOS, LDA. CRUZEIROS
2022/09/25 06:00 ESC202001034 001040 8201480 ARTANIA C6CY5 ILHAS BAAMAS 230.61 44656.0 DOCA 1 NORTE - PASSAGEIROS VIGO PRAIA DA VITÓRIA GARLAND NAVEGACAO CRUZEIROS
2022/09/27 10:00 ESC202002530 002535 9387073 MSC POESIA 3EPL4 PANAMA 293.8 92627.0 TERMINAL DE CRUZEIROS FERROL LISBOA MEDITERRANEAN SHIPPING CO. CRUZEIROS
2022/09/28 07:00 ESC202002596 002602 9451094 CELEBRITY SILHOUETTE 9HA2583 MALTA 315.0 122210.0 TERMINAL DE CRUZEIROS 7.0 7.0 LISBOA SOUTHAMPTON UNIVERSAL MARITIMA, LDA CRUZEIROS
2022/09/29 08:00 ESC202001673 001678 9479864 COSTA FASCINOSA ICPO ITALIA 289.58 113321.0 TERMINAL DE CRUZEIROS 8.1 8.1 LA CORUÑA LISBOA JAMES RAWES-NAVEGAÇÃO, LDA CRUZEIROS
2022/10/03 07:00 ESC202001886 001890 9838618 SILVER MOON ITP0223 ITALIA 212.8 41000.0 TERMINAL DE CRUZEIROS 7.0 7.0 UNKOWN LOCATION UNKOWN LOCATION UNIVERSAL MARITIMA, LDA CRUZEIROS
2022/10/03 08:00 ESC201902263 002287 9796262 VIKING JUPITER LAYP7 NORUEGA 228.26 47861.0 TERMINAL DE CRUZEIROS 8.0 8.0 FALMOUTH MÁLAGA JAMES RAWES-NAVEGAÇÃO, LDA CRUZEIROS
2022/10/04 08:00 ESC202000416 000415 9333175 VENTURA ZCDT2 BERMUDAS 288.61 116017.0 TERMINAL DE CRUZEIROS 8.1 8.1 CHERBOURG LISBOA JAMES RAWES-NAVEGAÇÃO, LDA CRUZEIROS
2022/10/06 07:00 ESC202001369 001376 9807085 SEVEN SEAS SPLENDOR 00000 ILHAS MARSHALL 223.0 54000.0 DOCA 1 NORTE - PASSAGEIROS 7.0 7.0 LA CORUÑA LISBOA UNIVERSAL MARITIMA, LDA CRUZEIROS
2022/10/09 08:00 ESC202002572 002578 9764958 SEABOURN OVATION C6CV5 ILHAS BAAMAS 210.3 41865.0 TERMINAL DE CRUZEIROS 8.0 8.0 LA CORUÑA LISBOA JAMES RAWES-NAVEGAÇÃO, LDA CRUZEIROS
2022/10/10 06:00 ESC202001402 001408 9438066 MARINA V7SK2 ILHAS MARSHALL 239.3 66084.0 DOCA 1 NORTE - PASSAGEIROS 7.0 7.0 VILLAGARCÍA (DE AROUSA) LISBOA UNIVERSAL MARITIMA, LDA CRUZEIROS
2022/10/10 08:00 ESC202000547 000547 9189421 CELEBRITY INFINITY 9HJD9 MALTA 294.0 90940.0 TERMINAL DE CRUZEIROS 7.0 7.0 CADIZ LISBOA UNIVERSAL MARITIMA, LDA CRUZEIROS
2022/10/14 08:00 ESC202002628 002636 9189421 CELEBRITY INFINITY 9HJD9 MALTA 294.0 90940.0 TERMINAL DE CRUZEIROS 7.0 7.0 LISBOA CADIZ UNIVERSAL MARITIMA, LDA CRUZEIROS
2022/10/15 08:00 ESC202002230 002234 9333175 VENTURA ZCDT2 BERMUDAS 288.61 116017.0 TERMINAL DE CRUZEIROS 8.1 8.1 LISBOA CHERBOURG JAMES RAWES-NAVEGAÇÃO, LDA CRUZEIROS
2022/10/16 08:00 ESC202001629 9833175 VIKING SEVEN VKSVN NORUEGA 228.2 47800.0 TERMINAL DE CRUZEIROS 8.1 8.1 LISBOA LA CORUÑA JAMES RAWES-NAVEGAÇÃO, LDA NAVIO EM CONSTRUÇÃO
2022/10/18 07:00 ESC202001363 001370 9451094 CELEBRITY SILHOUETTE 9HA2583 MALTA 315.0 122210.0 TERMINAL DE CRUZEIROS 8.0 8.0 LISBOA SOUTHAMPTON UNIVERSAL MARITIMA, LDA CRUZEIROS
2022/10/18 08:00 ESC202000718 000718 9195169 NORWEGIAN DAWN C6FT7 ILHAS BAAMAS 294.13 92250.0 TERMINAL DE CRUZEIROS 7.0 7.0 LA CORUÑA LISBOA UNIVERSAL MARITIMA, LDA CRUZEIROS
2022/10/22 06:00 ESC202001416 001422 9187899 SIRENA V7RX6 ILHAS MARSHALL 181.0 30277.0 DOCA 1 NORTE - PASSAGEIROS 7.0 7.0 VILLAGARCÍA (DE AROUSA) PORTIMAO UNIVERSAL MARITIMA, LDA CRUZEIROS
2022/10/22 08:00 ESC202002876 002887 9417098 SEABOURN SOJOURN C6YA5 ILHAS BAAMAS 198.19 32346.0 TERMINAL DE CRUZEIROS 8.0 8.0 LISBOA LA CORUÑA JAMES RAWES-NAVEGAÇÃO, LDA CRUZEIROS
2022/10/23 08:00 ESC202002362 002366 9678408 MEIN SCHIFF 4 9HA3513 MALTA 293.6 99526.0 TERMINAL DE CRUZEIROS 7.0 7.0 LA CORUÑA LISBOA UNIVERSAL MARITIMA, LDA CRUZEIROS
2022/10/24 07:00 ESC202001849 001852 9753208 MEIN SCHIFF 6 9HA4330 MALTA 295.25 98811.0 TERMINAL DE CRUZEIROS 8.0 8.0 VIGO LISBOA UNIVERSAL MARITIMA, LDA CRUZEIROS
2022/10/25 08:00 ESC202000420 000419 9333175 VENTURA ZCDT2 BERMUDAS 288.61 116017.0 TERMINAL DE CRUZEIROS 8.1 8.1 CHERBOURG LISBOA JAMES RAWES-NAVEGAÇÃO, LDA CRUZEIROS
2022/10/25 11:00 ESC202002378 002383 8700280 AMERA C6EA7 ILHAS BAAMAS 204.0 38848.0 DOCA 1 NORTE - PASSAGEIROS LA CORUÑA LISBOA GARLAND NAVEGACAO CRUZEIROS
2022/10/29 08:00 ESC202002629 002637 9189421 CELEBRITY INFINITY 9HJD9 MALTA 294.0 90940.0 TERMINAL DE CRUZEIROS 7.0 7.0 CADIZ LISBOA UNIVERSAL MARITIMA, LDA CRUZEIROS
2022/10/30 12:00 ESC202000820 000821 8913162 AMADEA C6VE9 ILHAS BAAMAS 190.0 29008.0 DOCA 1 NORTE - PASSAGEIROS LA CORUÑA LISBOA GARLAND NAVEGACAO CRUZEIROS
2022/11/01 08:00 ESC202000417 000416 9333175 VENTURA ZCDT2 BERMUDAS 288.61 116017.0 TERMINAL DE CRUZEIROS 8.1 8.1 LA CORUÑA CADIZ JAMES RAWES-NAVEGAÇÃO, LDA CRUZEIROS
2022/11/02 08:00 ESC202002777 002788 9189421 CELEBRITY INFINITY 9HJD9 MALTA 294.0 90940.0 TERMINAL DE CRUZEIROS 7.0 7.0 LISBOA CADIZ UNIVERSAL MARITIMA, LDA CRUZEIROS
2022/11/05 08:00 ESC202002450 002455 8919245 VASCO DA GAMA C6EG8 ILHAS BAAMAS 219.3 55877.0 TERMINAL DE CRUZEIROS 6.0 6.0 LA CORUÑA LISBOA NAVEX - EMP. PORT. DE NAVEGACAO CRUZEIROS
2022/11/14 11:00 ESC202002379 002384 8700280 AMERA C6EA7 ILHAS BAAMAS 204.0 38848.0 DOCA 1 NORTE - PASSAGEIROS LA CORUÑA LISBOA GARLAND NAVEGACAO CRUZEIROS
2022/11/15 08:00 ESC202002812 002823 9000699 BRAEMAR C6SY7 ILHAS BAAMAS 195.82 24344.0 TERMINAL DE CRUZEIROS 7.5 7.5 UNKOWN LOCATION UNKOWN LOCATION WILHELMSEN SHIPS SERVICE PORTUGAL, S.A. CRUZEIROS
2022/11/28 08:00 ESC202002630 002638 9189421 CELEBRITY INFINITY 9HJD9 MALTA 294.0 90940.0 TERMINAL DE CRUZEIROS 7.0 7.0 SEVILLA LISBOA UNIVERSAL MARITIMA, LDA CRUZEIROS
2022/12/02 08:00 ESC202100119 000120 7108930 BLACK WATCH C6RS5 ILHAS BAAMAS 205.47 28613.0 TERMINAL DE CRUZEIROS 7.5 7.5 LISBOA UNKOWN LOCATION WILHELMSEN SHIPS SERVICE PORTUGAL, S.A. CRUZEIROS
2022/12/16 11:00 ESC202002441 002445 8700280 AMERA C6EA7 ILHAS BAAMAS 204.0 38848.0 TERMINAL DE CRUZEIROS HAMBURG LISBOA GARLAND NAVEGACAO CRUZEIROS
2023/01/04 08:00 ESC202001956 001959 9802683 SPIRIT OF DISCOVERY MEYE7 REINO UNIDO 236.0 58119.0 TERMINAL DE CRUZEIROS 8.1 8.1 LISBOA LA CORUÑA JAMES RAWES-NAVEGAÇÃO, LDA CRUZEIROS
2023/01/15 07:00 ESC202100446 000445 9221554 AIDAVITA IBNP ITALIA 202.85 42289.0 TERMINAL DE CRUZEIROS 8.0 8.0 LISBOA ROTTERDAM JAMES RAWES-NAVEGAÇÃO, LDA CRUZEIROS
2023/02/27 08:00 ESC202100447 000446 9221554 AIDAVITA IBNP ITALIA 202.85 42289.0 TERMINAL DE CRUZEIROS 8.0 8.0 LISBOA ROTTERDAM JAMES RAWES-NAVEGAÇÃO, LDA CRUZEIROS
2023/03/11 13:30 ESC202100120 000121 8506294 BALMORAL C6II4 ILHAS BAAMAS 217.91 43537.0 TERMINAL DE CRUZEIROS 7.5 7.5 LISBOA UNKOWN LOCATION WILHELMSEN SHIPS SERVICE PORTUGAL, S.A. CRUZEIROS
2023/04/08 08:00 ESC202001627 001635 9796262 VIKING JUPITER LAYP7 NORUEGA 228.26 47861.0 TERMINAL DE CRUZEIROS 8.0 8.0 LISBOA LA CORUÑA JAMES RAWES-NAVEGAÇÃO, LDA CRUZEIROS
2023/04/09 08:00 ESC202000069 000070 9490052 AIDAMAR ICSJ ITALIA 253.22 71304.0 TERMINAL DE CRUZEIROS 8.1 8.1 LISBOA LA CORUÑA JAMES RAWES-NAVEGAÇÃO, LDA CRUZEIROS
2023/04/14 08:00 ESC202002275 002281 9641730 MEIN SCHIFF 3 9HA3062 MALTA 293.2 99526.0 TERMINAL DE CRUZEIROS 6.0 6.0 LISBOA LA CORUÑA UNIVERSAL MARITIMA, LDA CRUZEIROS
2023/04/16 08:00 ESC202002288 002294 9783564 MEIN SCHIFF 1 9HA4683 MALTA 315.7 111554.0 TERMINAL DE CRUZEIROS 8.0 8.0 LISBOA LA CORUÑA UNIVERSAL MARITIMA, LDA CRUZEIROS
2023/04/17 07:00 ESC202100173 000174 9320087 MSC MUSICA 3EFK6 PANAMA 293.8 92409.0 TERMINAL DE CRUZEIROS FUNCHAL, MADEIRA FERROL MEDITERRANEAN SHIPPING CO. CRUZEIROS
2023/04/21 07:00 ESC202001620 001627 8700280 AMERA C6EA7 ILHAS BAAMAS 204.0 38848.0 TERMINAL DE CRUZEIROS PONTA DELGADA FERROL GARLAND NAVEGACAO CRUZEIROS
2023/05/09 07:00 ESC202100311 9833187 VIKING MARS VIKMRS NORUEGA 228.26 47800.0 TERMINAL DE CRUZEIROS 8.1 8.1 MÁLAGA FALMOUTH JAMES RAWES-NAVEGAÇÃO, LDA NAVIO EM CONSTRUÇÃO
2023/05/10 08:00 ESC202000019 000019 9479852 COSTA FAVOLOSA ICPK ITALIA 289.65 113216.0 TERMINAL DE CRUZEIROS 8.1 8.1 LA CORUÑA LISBOA JAMES RAWES-NAVEGAÇÃO, LDA CRUZEIROS
2023/06/05 09:00 ESC202100296 000298 9210220 AZAMARA PURSUIT 9HA4800 MALTA 181.0 30277.0 DOCA 1 NORTE - PASSAGEIROS 5.0 5.0 LISBOA BILBAO UNIVERSAL MARITIMA, LDA CRUZEIROS
2023/06/09 08:00 ESC202002160 002165 9850460 SCENIC ECLIPSE 2 0 MALTA 165.7 22498.0 DOCA 1 NORTE - PASSAGEIROS 5.3 5.3 LISBOA VIGO MARMEDSA - AGENCIA MARITIMA, LDA CRUZEIROS
2023/07/22 07:00 ESC202100310 000312 9483126 SEABOURN QUEST C6YZ5 ILHAS BAAMAS 198.19 32477.0 TERMINAL DE CRUZEIROS 7.6 7.6 LISBOA FERROL JAMES RAWES-NAVEGAÇÃO, LDA CRUZEIROS
2023/08/16 09:00 ESC202002289 002295 9783564 MEIN SCHIFF 1 9HA4683 MALTA 315.7 111554.0 TERMINAL DE CRUZEIROS 8.0 8.0 LA CORUÑA LISBOA UNIVERSAL MARITIMA, LDA CRUZEIROS
2023/08/25 07:00 ESC201901097 001109 9189421 CELEBRITY INFINITY 9HJD9 MALTA 294.0 90940.0 TERMINAL DE CRUZEIROS 8.0 8.0 LA CORUÑA LISBOA UNIVERSAL MARITIMA, LDA CRUZEIROS
2023/08/29 07:00 ESC201901099 001111 9189421 CELEBRITY INFINITY 9HJD9 MALTA 294.0 90940.0 TERMINAL DE CRUZEIROS 8.0 8.0 LISBOA LA CORUÑA UNIVERSAL MARITIMA, LDA CRUZEIROS
2023/08/30 07:00 ESC202000549 000549 9451094 CELEBRITY SILHOUETTE 9HA2583 MALTA 315.0 122210.0 TERMINAL DE CRUZEIROS UNKOWN LOCATION UNKOWN LOCATION UNIVERSAL MARITIMA, LDA CRUZEIROS
2023/09/02 07:00 ESC202000601 000599 9228356 JEWEL OF THE SEAS C6FW9 ILHAS BAAMAS 293.0 90090.0 TERMINAL DE CRUZEIROS UNKOWN LOCATION UNKOWN LOCATION UNIVERSAL MARITIMA, LDA CRUZEIROS
2023/09/14 07:00 ESC201901100 001112 9189421 CELEBRITY INFINITY 9HJD9 MALTA 294.0 90940.0 TERMINAL DE CRUZEIROS 8.0 8.0 LA CORUÑA LISBOA UNIVERSAL MARITIMA, LDA CRUZEIROS
2023/09/17 09:00 ESC202100300 000302 9200940 AZAMARA JOURNEY 9HOB8 MALTA 181.0 30277.0 DOCA 1 NORTE - PASSAGEIROS 5.0 5.0 LA CORUÑA LISBOA UNIVERSAL MARITIMA, LDA CRUZEIROS
2023/09/18 07:00 ESC201901101 001113 9189421 CELEBRITY INFINITY 9HJD9 MALTA 294.0 90940.0 TERMINAL DE CRUZEIROS 8.0 8.0 LISBOA LA CORUÑA UNIVERSAL MARITIMA, LDA CRUZEIROS
2023/09/20 08:00 ESC202002094 002097 9797371 SCENIC ECLIPSE ? MALTA 165.7 22498.0 TERMINAL DE CRUZEIROS 5.8 5.8 LISBOA VIGO MARMEDSA - AGENCIA MARITIMA, LDA CRUZEIROS
2023/09/22 07:00 ESC202000602 000600 9228356 JEWEL OF THE SEAS C6FW9 ILHAS BAAMAS 293.0 90090.0 TERMINAL DE CRUZEIROS UNKOWN LOCATION UNKOWN LOCATION UNIVERSAL MARITIMA, LDA CRUZEIROS
2023/10/04 07:00 ESC202000768 000769 9812705 CELEBRITY EDGE 9HA4612 MALTA 306.0 129500.0 TERMINAL DE CRUZEIROS UNKOWN LOCATION UNKOWN LOCATION UNIVERSAL MARITIMA, LDA CRUZEIROS
2023/10/08 07:00 ESC201901103 001115 9189421 CELEBRITY INFINITY 9HJD9 MALTA 294.0 90940.0 TERMINAL DE CRUZEIROS LISBOA LA CORUÑA UNIVERSAL MARITIMA, LDA CRUZEIROS
2023/10/09 08:00 ESC202001628 001636 9796262 VIKING JUPITER LAYP7 NORUEGA 228.26 47861.0 TERMINAL DE CRUZEIROS 8.1 8.1 LISBOA LA CORUÑA JAMES RAWES-NAVEGAÇÃO, LDA CRUZEIROS
2023/10/09 08:00 ESC202002290 002296 9783564 MEIN SCHIFF 1 9HA4683 MALTA 315.7 111554.0 TERMINAL DE CRUZEIROS 8.0 8.0 LA CORUÑA LISBOA UNIVERSAL MARITIMA, LDA CRUZEIROS
2023/10/14 07:00 ESC201901102 001114 9189421 CELEBRITY INFINITY 9HJD9 MALTA 294.0 90940.0 TERMINAL DE CRUZEIROS 8.0 8.0 LA CORUÑA LISBOA UNIVERSAL MARITIMA, LDA CRUZEIROS
2023/10/15 07:00 ESC202000769 000770 9812705 CELEBRITY EDGE 9HA4612 MALTA 306.0 129500.0 TERMINAL DE CRUZEIROS UNKOWN LOCATION UNKOWN LOCATION UNIVERSAL MARITIMA, LDA CRUZEIROS
2023/10/31 08:00 ESC202002340 3321559 LEONARDO 1 MMRS1 ILHAS BAAMAS 294.0 145000.0 TERMINAL DE CRUZEIROS 8.0 8.0 COBH LISBOA UNIVERSAL MARITIMA, LDA NAVIO EM CONSTRUÇÃO
2024/08/28 07:00 ESC202000773 000774 9451094 CELEBRITY SILHOUETTE 9HA2583 MALTA 315.0 122210.0 TERMINAL DE CRUZEIROS UNKOWN LOCATION UNKOWN LOCATION UNIVERSAL MARITIMA, LDA CRUZEIROS
2024/08/30 07:00 ESC202000774 000775 9189421 CELEBRITY INFINITY 9HJD9 MALTA 294.0 90940.0 TERMINAL DE CRUZEIROS UNKOWN LOCATION UNKOWN LOCATION UNIVERSAL MARITIMA, LDA CRUZEIROS
2024/09/03 07:00 ESC202000775 000776 9189421 CELEBRITY INFINITY 9HJD9 MALTA 294.0 90940.0 TERMINAL DE CRUZEIROS UNKOWN LOCATION UNKOWN LOCATION UNIVERSAL MARITIMA, LDA CRUZEIROS
2024/09/19 07:00 ESC202000782 000783 9189421 CELEBRITY INFINITY 9HJD9 MALTA 294.0 90940.0 TERMINAL DE CRUZEIROS UNKOWN LOCATION UNKOWN LOCATION UNIVERSAL MARITIMA, LDA CRUZEIROS
2024/09/23 07:00 ESC202000783 000784 9189421 CELEBRITY INFINITY 9HJD9 MALTA 294.0 90940.0 TERMINAL DE CRUZEIROS UNKOWN LOCATION UNKOWN LOCATION UNIVERSAL MARITIMA, LDA CRUZEIROS
2024/10/13 07:00 ESC202000784 000785 9189421 CELEBRITY INFINITY 9HJD9 MALTA 294.0 90940.0 TERMINAL DE CRUZEIROS UNKOWN LOCATION UNKOWN LOCATION UNIVERSAL MARITIMA, LDA CRUZEIROS
2024/10/20 07:00 ESC202000785 000786 9812705 CELEBRITY EDGE 9HA4612 MALTA 306.0 129500.0 TERMINAL DE CRUZEIROS UNKOWN LOCATION UNKOWN LOCATION UNIVERSAL MARITIMA, LDA CRUZEIROS
2024/10/30 07:00 ESC202000786 000787 9812705 CELEBRITY EDGE 9HA4612 MALTA 306.0 129500.0 TERMINAL DE CRUZEIROS UNKOWN LOCATION UNKOWN LOCATION UNIVERSAL MARITIMA, LDA CRUZEIROS
2025/08/27 07:00 ESC202000798 000799 9451094 CELEBRITY SILHOUETTE 9HA2583 MALTA 315.0 122210.0 TERMINAL DE CRUZEIROS UNKOWN LOCATION UNKOWN LOCATION UNIVERSAL MARITIMA, LDA CRUZEIROS
2025/08/29 07:00 ESC202000799 000800 9189421 CELEBRITY INFINITY 9HJD9 MALTA 294.0 90940.0 TERMINAL DE CRUZEIROS UNKOWN LOCATION UNKOWN LOCATION UNIVERSAL MARITIMA, LDA CRUZEIROS
2025/09/02 07:00 ESC202000809 000810 9189421 CELEBRITY INFINITY 9HJD9 MALTA 294.0 90940.0 TERMINAL DE CRUZEIROS UNKOWN LOCATION UNKOWN LOCATION UNIVERSAL MARITIMA, LDA CRUZEIROS
2025/09/18 07:00 ESC202000810 000811 9189421 CELEBRITY INFINITY 9HJD9 MALTA 294.0 90940.0 TERMINAL DE CRUZEIROS UNKOWN LOCATION UNKOWN LOCATION UNIVERSAL MARITIMA, LDA CRUZEIROS
2025/09/22 07:00 ESC202000811 000812 9189421 CELEBRITY INFINITY 9HJD9 MALTA 294.0 90940.0 TERMINAL DE CRUZEIROS UNKOWN LOCATION UNKOWN LOCATION UNIVERSAL MARITIMA, LDA CRUZEIROS
2025/10/12 07:00 ESC202000812 000813 9189421 CELEBRITY INFINITY 9HJD9 MALTA 294.0 90940.0 TERMINAL DE CRUZEIROS UNKOWN LOCATION UNKOWN LOCATION UNIVERSAL MARITIMA, LDA CRUZEIROS
2025/10/19 07:00 ESC202000813 000814 9812705 CELEBRITY EDGE 9HA4612 MALTA 306.0 129500.0 TERMINAL DE CRUZEIROS UNKOWN LOCATION UNKOWN LOCATION UNIVERSAL MARITIMA, LDA CRUZEIROS
2026/08/28 07:00 ESC202000815 000816 9189421 CELEBRITY INFINITY 9HJD9 MALTA 294.0 90940.0 TERMINAL DE CRUZEIROS UNKOWN LOCATION UNKOWN LOCATION UNIVERSAL MARITIMA, LDA CRUZEIROS
2026/09/01 07:00 ESC202000816 000817 9189421 CELEBRITY INFINITY 9HJD9 MALTA 294.0 90940.0 TERMINAL DE CRUZEIROS UNKOWN LOCATION UNKOWN LOCATION UNIVERSAL MARITIMA, LDA CRUZEIROS
2026/09/02 07:00 ESC202000817 000818 9451094 CELEBRITY SILHOUETTE 9HA2583 MALTA 315.0 122210.0 TERMINAL DE CRUZEIROS UNKOWN LOCATION UNKOWN LOCATION UNIVERSAL MARITIMA, LDA CRUZEIROS
2026/09/17 07:00 ESC202000918 000922 9189421 CELEBRITY INFINITY 9HJD9 MALTA 294.0 90940.0 TERMINAL DE CRUZEIROS UNKOWN LOCATION UNKOWN LOCATION UNIVERSAL MARITIMA, LDA CRUZEIROS
2026/09/21 07:00 ESC202000919 000923 9189421 CELEBRITY INFINITY 9HJD9 MALTA 294.0 90940.0 TERMINAL DE CRUZEIROS UNKOWN LOCATION UNKOWN LOCATION UNIVERSAL MARITIMA, LDA CRUZEIROS
2026/10/11 07:00 ESC202000920 000924 9189421 CELEBRITY INFINITY 9HJD9 MALTA 294.0 90940.0 TERMINAL DE CRUZEIROS UNKOWN LOCATION UNKOWN LOCATION UNIVERSAL MARITIMA, LDA CRUZEIROS
2026/10/18 07:00 ESC202000921 000925 9812705 CELEBRITY EDGE 9HA4612 MALTA 306.0 129500.0 TERMINAL DE CRUZEIROS UNKOWN LOCATION UNKOWN LOCATION UNIVERSAL MARITIMA, LDA CRUZEIROS
2027/08/27 07:00 ESC202000924 000928 9189421 CELEBRITY INFINITY 9HJD9 MALTA 294.0 90940.0 TERMINAL DE CRUZEIROS UNKOWN LOCATION UNKOWN LOCATION UNIVERSAL MARITIMA, LDA CRUZEIROS
2027/08/31 07:00 ESC202000925 000929 9189421 CELEBRITY INFINITY 9HJD9 MALTA 294.0 90940.0 TERMINAL DE CRUZEIROS UNKOWN LOCATION UNKOWN LOCATION UNIVERSAL MARITIMA, LDA CRUZEIROS
2027/09/01 07:00 ESC202000926 000930 9451094 CELEBRITY SILHOUETTE 9HA2583 MALTA 315.0 122210.0 TERMINAL DE CRUZEIROS UNKOWN LOCATION UNKOWN LOCATION UNIVERSAL MARITIMA, LDA CRUZEIROS
2027/09/16 07:00 ESC202000927 000931 9189421 CELEBRITY INFINITY 9HJD9 MALTA 294.0 90940.0 TERMINAL DE CRUZEIROS UNKOWN LOCATION UNKOWN LOCATION UNIVERSAL MARITIMA, LDA CRUZEIROS
2027/09/20 07:00 ESC202000928 000932 9189421 CELEBRITY INFINITY 9HJD9 MALTA 294.0 90940.0 TERMINAL DE CRUZEIROS UNKOWN LOCATION UNKOWN LOCATION UNIVERSAL MARITIMA, LDA CRUZEIROS
2027/10/10 07:00 ESC202000929 000933 9189421 CELEBRITY INFINITY 9HJD9 MALTA 294.0 90940.0 TERMINAL DE CRUZEIROS UNKOWN LOCATION UNKOWN LOCATION UNIVERSAL MARITIMA, LDA CRUZEIROS
2027/10/17 07:00 ESC202000930 000934 9812705 CELEBRITY EDGE 9HA4612 MALTA 306.0 129500.0 TERMINAL DE CRUZEIROS UNKOWN LOCATION UNKOWN LOCATION UNIVERSAL MARITIMA, LDA CRUZEIROS
2028/08/25 07:00 ESC202001082 001088 9189421 CELEBRITY INFINITY 9HJD9 MALTA 294.0 90940.0 TERMINAL DE CRUZEIROS UNKOWN LOCATION UNKOWN LOCATION UNIVERSAL MARITIMA, LDA CRUZEIROS
2028/08/29 07:00 ESC202001083 001089 9189421 CELEBRITY INFINITY 9HJD9 MALTA 294.0 90940.0 TERMINAL DE CRUZEIROS UNKOWN LOCATION UNKOWN LOCATION UNIVERSAL MARITIMA, LDA CRUZEIROS
2028/08/30 07:00 ESC202001084 001090 9451094 CELEBRITY SILHOUETTE 9HA2583 MALTA 315.0 122210.0 TERMINAL DE CRUZEIROS UNKOWN LOCATION UNKOWN LOCATION UNIVERSAL MARITIMA, LDA CRUZEIROS
2028/09/14 07:00 ESC202001085 001091 9189421 CELEBRITY INFINITY 9HJD9 MALTA 294.0 90940.0 TERMINAL DE CRUZEIROS UNKOWN LOCATION UNKOWN LOCATION UNIVERSAL MARITIMA, LDA CRUZEIROS
2028/09/18 07:00 ESC202001086 001092 9189421 CELEBRITY INFINITY 9HJD9 MALTA 294.0 90940.0 TERMINAL DE CRUZEIROS UNKOWN LOCATION UNKOWN LOCATION UNIVERSAL MARITIMA, LDA CRUZEIROS
2028/10/08 07:00 ESC202001087 001093 9189421 CELEBRITY INFINITY 9HJD9 MALTA 294.0 90940.0 TERMINAL DE CRUZEIROS UNKOWN LOCATION UNKOWN LOCATION UNIVERSAL MARITIMA, LDA CRUZEIROS
2028/10/15 07:00 ESC202001088 001094 9812705 CELEBRITY EDGE 9HA4612 MALTA 306.0 129500.0 TERMINAL DE CRUZEIROS UNKOWN LOCATION UNKOWN LOCATION UNIVERSAL MARITIMA, LDA CRUZEIROS
2029/08/28 07:00 ESC202001089 001095 9451094 CELEBRITY SILHOUETTE 9HA2583 MALTA 315.0 122210.0 TERMINAL DE CRUZEIROS UNKOWN LOCATION UNKOWN LOCATION UNIVERSAL MARITIMA, LDA CRUZEIROS
2029/08/31 07:00 ESC202001090 001096 9189421 CELEBRITY INFINITY 9HJD9 MALTA 294.0 90940.0 TERMINAL DE CRUZEIROS UNKOWN LOCATION UNKOWN LOCATION UNIVERSAL MARITIMA, LDA CRUZEIROS
2029/09/04 07:00 ESC202001091 001097 9189421 CELEBRITY INFINITY 9HJD9 MALTA 294.0 90940.0 TERMINAL DE CRUZEIROS UNKOWN LOCATION UNKOWN LOCATION UNIVERSAL MARITIMA, LDA CRUZEIROS
2029/09/20 07:00 ESC202001092 001098 9189421 CELEBRITY INFINITY 9HJD9 MALTA 294.0 90940.0 TERMINAL DE CRUZEIROS UNKOWN LOCATION UNKOWN LOCATION UNIVERSAL MARITIMA, LDA CRUZEIROS
2029/09/24 07:00 ESC202001093 001099 9189421 CELEBRITY INFINITY 9HJD9 MALTA 294.0 90940.0 TERMINAL DE CRUZEIROS UNKOWN LOCATION UNKOWN LOCATION UNIVERSAL MARITIMA, LDA CRUZEIROS
2029/10/14 07:00 ESC202001094 001100 9189421 CELEBRITY INFINITY 9HJD9 MALTA 294.0 90940.0 TERMINAL DE CRUZEIROS UNKOWN LOCATION UNKOWN LOCATION UNIVERSAL MARITIMA, LDA CRUZEIROS
2029/10/21 07:00 ESC202001095 001101 9812705 CELEBRITY EDGE 9HA4612 MALTA 306.0 129500.0 TERMINAL DE CRUZEIROS UNKOWN LOCATION UNKOWN LOCATION UNIVERSAL MARITIMA, LDA CRUZEIROS

APDL - Administração dos Portos do Douro, Leixões e Viana do Castelo, SA